<?xml version="1.0" encoding="UTF-8" standalone="no" ?>
<gpx xmlns="http://www.topografix.com/GPX/1/1" xmlns:xsi="http://www.w3.org/2001/XMLSchema-instance" xsi:schemaLocation="http://www.topografix.com/GPX/1/1 http://www.topografix.com/GPX/1/1/gpx.xsd" version="1.1" creator="VisuGPX - https://www.visugpx.com">
  <metadata>
    <name>VTT Accompagnement Téléthon EDF</name>
    <desc><![CDATA[1 - Etape 1 Monistrol / Bains
  - Coureurs Julien, Simon
  - Cyclistes Baptiste, Yvan, Michel]]></desc>
  </metadata>
  <trk>
    <name><![CDATA[VTT Accompagnement Téléthon EDF]]></name>
    <trkseg>
      <trkpt lat="44.96869" lon="3.64494">
        <ele>600.6</ele>
        <time>2019-12-07T07:44:52Z</time>
      </trkpt>
      <trkpt lat="44.96894" lon="3.64517">
        <ele>602.4</ele>
        <time>2019-12-07T07:45:13Z</time>
      </trkpt>
      <trkpt lat="44.96908" lon="3.64531">
        <ele>604.9</ele>
        <time>2019-12-07T07:45:21Z</time>
      </trkpt>
      <trkpt lat="44.96916" lon="3.64552">
        <ele>612.4</ele>
        <time>2019-12-07T07:45:27Z</time>
      </trkpt>
      <trkpt lat="44.96916" lon="3.64557">
        <ele>612.6</ele>
        <time>2019-12-07T07:45:28Z</time>
      </trkpt>
      <trkpt lat="44.96915" lon="3.64561">
        <ele>612.8</ele>
        <time>2019-12-07T07:45:29Z</time>
      </trkpt>
      <trkpt lat="44.96914" lon="3.64564">
        <ele>612.9</ele>
        <time>2019-12-07T07:45:30Z</time>
      </trkpt>
      <trkpt lat="44.96913" lon="3.64568">
        <ele>613.1</ele>
        <time>2019-12-07T07:45:31Z</time>
      </trkpt>
      <trkpt lat="44.96912" lon="3.64572">
        <ele>613.2</ele>
        <time>2019-12-07T07:45:32Z</time>
      </trkpt>
      <trkpt lat="44.96906" lon="3.64587">
        <ele>613.7</ele>
        <time>2019-12-07T07:45:36Z</time>
      </trkpt>
      <trkpt lat="44.96901" lon="3.64601">
        <ele>613.9</ele>
        <time>2019-12-07T07:45:40Z</time>
      </trkpt>
      <trkpt lat="44.96895" lon="3.64615">
        <ele>613.9</ele>
        <time>2019-12-07T07:45:44Z</time>
      </trkpt>
      <trkpt lat="44.96885" lon="3.64637">
        <ele>613.7</ele>
        <time>2019-12-07T07:45:51Z</time>
      </trkpt>
      <trkpt lat="44.96879" lon="3.64651">
        <ele>613.5</ele>
        <time>2019-12-07T07:45:55Z</time>
      </trkpt>
      <trkpt lat="44.96862" lon="3.64685">
        <ele>612.7</ele>
        <time>2019-12-07T07:46:06Z</time>
      </trkpt>
      <trkpt lat="44.96854" lon="3.64699">
        <ele>612.1</ele>
        <time>2019-12-07T07:46:11Z</time>
      </trkpt>
      <trkpt lat="44.96841" lon="3.64721">
        <ele>611.3</ele>
        <time>2019-12-07T07:46:19Z</time>
      </trkpt>
      <trkpt lat="44.96827" lon="3.64749">
        <ele>612.6</ele>
        <time>2019-12-07T07:46:28Z</time>
      </trkpt>
      <trkpt lat="44.96821" lon="3.64763">
        <ele>614.4</ele>
        <time>2019-12-07T07:46:33Z</time>
      </trkpt>
      <trkpt lat="44.96821" lon="3.64766">
        <ele>614.8</ele>
        <time>2019-12-07T07:46:34Z</time>
      </trkpt>
      <trkpt lat="44.96822" lon="3.6478">
        <ele>616.2</ele>
        <time>2019-12-07T07:46:39Z</time>
      </trkpt>
      <trkpt lat="44.96829" lon="3.64787">
        <ele>617.5</ele>
        <time>2019-12-07T07:46:44Z</time>
      </trkpt>
      <trkpt lat="44.96831" lon="3.64788">
        <ele>617.8</ele>
        <time>2019-12-07T07:46:45Z</time>
      </trkpt>
      <trkpt lat="44.96833" lon="3.64788">
        <ele>618.1</ele>
        <time>2019-12-07T07:46:46Z</time>
      </trkpt>
      <trkpt lat="44.96834" lon="3.64789">
        <ele>618.4</ele>
        <time>2019-12-07T07:46:47Z</time>
      </trkpt>
      <trkpt lat="44.96836" lon="3.6479">
        <ele>618.7</ele>
        <time>2019-12-07T07:46:48Z</time>
      </trkpt>
      <trkpt lat="44.96847" lon="3.64789">
        <ele>620.3</ele>
        <time>2019-12-07T07:46:54Z</time>
      </trkpt>
      <trkpt lat="44.9687" lon="3.64782">
        <ele>624</ele>
        <time>2019-12-07T07:47:07Z</time>
      </trkpt>
      <trkpt lat="44.96892" lon="3.64772">
        <ele>627.2</ele>
        <time>2019-12-07T07:47:20Z</time>
      </trkpt>
      <trkpt lat="44.96913" lon="3.64761">
        <ele>631</ele>
        <time>2019-12-07T07:47:33Z</time>
      </trkpt>
      <trkpt lat="44.96939" lon="3.64763">
        <ele>635.2</ele>
        <time>2019-12-07T07:47:48Z</time>
      </trkpt>
      <trkpt lat="44.96946" lon="3.64767">
        <ele>636.6</ele>
        <time>2019-12-07T07:47:52Z</time>
      </trkpt>
      <trkpt lat="44.96949" lon="3.64769">
        <ele>637.3</ele>
        <time>2019-12-07T07:47:54Z</time>
      </trkpt>
      <trkpt lat="44.96977" lon="3.648">
        <ele>642.8</ele>
        <time>2019-12-07T07:48:13Z</time>
      </trkpt>
      <trkpt lat="44.96986" lon="3.64813">
        <ele>645</ele>
        <time>2019-12-07T07:48:20Z</time>
      </trkpt>
      <trkpt lat="44.96988" lon="3.64815">
        <ele>645.4</ele>
        <time>2019-12-07T07:48:21Z</time>
      </trkpt>
      <trkpt lat="44.96989" lon="3.64816">
        <ele>645.7</ele>
        <time>2019-12-07T07:48:22Z</time>
      </trkpt>
      <trkpt lat="44.96991" lon="3.64818">
        <ele>645.9</ele>
        <time>2019-12-07T07:48:23Z</time>
      </trkpt>
      <trkpt lat="44.96992" lon="3.6482">
        <ele>646.2</ele>
        <time>2019-12-07T07:48:24Z</time>
      </trkpt>
      <trkpt lat="44.9702" lon="3.64853">
        <ele>650.7</ele>
        <time>2019-12-07T07:48:42Z</time>
      </trkpt>
      <trkpt lat="44.97024" lon="3.6486">
        <ele>651.2</ele>
        <time>2019-12-07T07:48:45Z</time>
      </trkpt>
      <trkpt lat="44.97041" lon="3.64905">
        <ele>654.3</ele>
        <time>2019-12-07T07:49:04Z</time>
      </trkpt>
      <trkpt lat="44.97045" lon="3.64926">
        <ele>655.5</ele>
        <time>2019-12-07T07:49:11Z</time>
      </trkpt>
      <trkpt lat="44.9706" lon="3.6498">
        <ele>658.5</ele>
        <time>2019-12-07T07:49:30Z</time>
      </trkpt>
      <trkpt lat="44.97063" lon="3.65017">
        <ele>660.4</ele>
        <time>2019-12-07T07:49:42Z</time>
      </trkpt>
      <trkpt lat="44.97062" lon="3.65035">
        <ele>661.3</ele>
        <time>2019-12-07T07:49:49Z</time>
      </trkpt>
      <trkpt lat="44.97063" lon="3.65043">
        <ele>661.7</ele>
        <time>2019-12-07T07:49:52Z</time>
      </trkpt>
      <trkpt lat="44.97063" lon="3.6505">
        <ele>662.1</ele>
        <time>2019-12-07T07:49:55Z</time>
      </trkpt>
      <trkpt lat="44.97063" lon="3.65086">
        <ele>664.1</ele>
        <time>2019-12-07T07:50:09Z</time>
      </trkpt>
      <trkpt lat="44.97065" lon="3.65095">
        <ele>664.6</ele>
        <time>2019-12-07T07:50:12Z</time>
      </trkpt>
      <trkpt lat="44.97065" lon="3.65125">
        <ele>666.2</ele>
        <time>2019-12-07T07:50:23Z</time>
      </trkpt>
      <trkpt lat="44.97067" lon="3.65151">
        <ele>667.5</ele>
        <time>2019-12-07T07:50:31Z</time>
      </trkpt>
      <trkpt lat="44.97068" lon="3.65161">
        <ele>667.9</ele>
        <time>2019-12-07T07:50:34Z</time>
      </trkpt>
      <trkpt lat="44.9707" lon="3.65208">
        <ele>670.3</ele>
        <time>2019-12-07T07:50:49Z</time>
      </trkpt>
      <trkpt lat="44.97073" lon="3.65253">
        <ele>672.7</ele>
        <time>2019-12-07T07:51:05Z</time>
      </trkpt>
      <trkpt lat="44.97074" lon="3.65295">
        <ele>674.9</ele>
        <time>2019-12-07T07:51:21Z</time>
      </trkpt>
      <trkpt lat="44.97075" lon="3.6534">
        <ele>677.2</ele>
        <time>2019-12-07T07:51:37Z</time>
      </trkpt>
      <trkpt lat="44.97076" lon="3.65384">
        <ele>679.5</ele>
        <time>2019-12-07T07:51:53Z</time>
      </trkpt>
      <trkpt lat="44.97076" lon="3.65426">
        <ele>681.8</ele>
        <time>2019-12-07T07:52:08Z</time>
      </trkpt>
      <trkpt lat="44.97076" lon="3.65472">
        <ele>685.5</ele>
        <time>2019-12-07T07:52:24Z</time>
      </trkpt>
      <trkpt lat="44.97076" lon="3.65519">
        <ele>689.1</ele>
        <time>2019-12-07T07:52:41Z</time>
      </trkpt>
      <trkpt lat="44.97075" lon="3.65571">
        <ele>694.5</ele>
        <time>2019-12-07T07:52:59Z</time>
      </trkpt>
      <trkpt lat="44.97071" lon="3.65609">
        <ele>698.2</ele>
        <time>2019-12-07T07:53:13Z</time>
      </trkpt>
      <trkpt lat="44.97079" lon="3.65637">
        <ele>700.4</ele>
        <time>2019-12-07T07:53:27Z</time>
      </trkpt>
      <trkpt lat="44.9708" lon="3.65634">
        <ele>700.6</ele>
        <time>2019-12-07T07:53:28Z</time>
      </trkpt>
      <trkpt lat="44.97087" lon="3.6561">
        <ele>701.6</ele>
        <time>2019-12-07T07:53:37Z</time>
      </trkpt>
      <trkpt lat="44.97101" lon="3.65557">
        <ele>704.8</ele>
        <time>2019-12-07T07:53:53Z</time>
      </trkpt>
      <trkpt lat="44.97114" lon="3.65508">
        <ele>707.5</ele>
        <time>2019-12-07T07:54:10Z</time>
      </trkpt>
      <trkpt lat="44.97128" lon="3.65461">
        <ele>711.5</ele>
        <time>2019-12-07T07:54:26Z</time>
      </trkpt>
      <trkpt lat="44.97141" lon="3.65411">
        <ele>716.2</ele>
        <time>2019-12-07T07:54:42Z</time>
      </trkpt>
      <trkpt lat="44.9715" lon="3.65364">
        <ele>721</ele>
        <time>2019-12-07T07:54:57Z</time>
      </trkpt>
      <trkpt lat="44.97153" lon="3.65349">
        <ele>722.2</ele>
        <time>2019-12-07T07:55:02Z</time>
      </trkpt>
      <trkpt lat="44.97155" lon="3.65337">
        <ele>723.5</ele>
        <time>2019-12-07T07:55:06Z</time>
      </trkpt>
      <trkpt lat="44.97159" lon="3.65316">
        <ele>724.8</ele>
        <time>2019-12-07T07:55:13Z</time>
      </trkpt>
      <trkpt lat="44.97165" lon="3.65275">
        <ele>727.1</ele>
        <time>2019-12-07T07:55:29Z</time>
      </trkpt>
      <trkpt lat="44.97167" lon="3.65274">
        <ele>727.2</ele>
        <time>2019-12-07T07:55:30Z</time>
      </trkpt>
      <trkpt lat="44.97168" lon="3.65274">
        <ele>727.3</ele>
        <time>2019-12-07T07:55:31Z</time>
      </trkpt>
      <trkpt lat="44.9717" lon="3.65276">
        <ele>727.4</ele>
        <time>2019-12-07T07:55:32Z</time>
      </trkpt>
      <trkpt lat="44.9717" lon="3.65278">
        <ele>727.5</ele>
        <time>2019-12-07T07:55:33Z</time>
      </trkpt>
      <trkpt lat="44.97171" lon="3.65286">
        <ele>728</ele>
        <time>2019-12-07T07:55:43Z</time>
      </trkpt>
      <trkpt lat="44.97171" lon="3.65287">
        <ele>728.1</ele>
        <time>2019-12-07T07:55:47Z</time>
      </trkpt>
      <trkpt lat="44.97171" lon="3.65292">
        <ele>728.4</ele>
        <time>2019-12-07T07:55:50Z</time>
      </trkpt>
      <trkpt lat="44.97171" lon="3.65294">
        <ele>728.6</ele>
        <time>2019-12-07T07:55:51Z</time>
      </trkpt>
      <trkpt lat="44.97172" lon="3.65304">
        <ele>729.2</ele>
        <time>2019-12-07T07:55:56Z</time>
      </trkpt>
      <trkpt lat="44.97173" lon="3.65315">
        <ele>729.8</ele>
        <time>2019-12-07T07:56:02Z</time>
      </trkpt>
      <trkpt lat="44.97173" lon="3.65319">
        <ele>730</ele>
        <time>2019-12-07T07:56:04Z</time>
      </trkpt>
      <trkpt lat="44.97174" lon="3.65321">
        <ele>730.1</ele>
        <time>2019-12-07T07:56:05Z</time>
      </trkpt>
      <trkpt lat="44.97174" lon="3.65322">
        <ele>730.2</ele>
        <time>2019-12-07T07:56:06Z</time>
      </trkpt>
      <trkpt lat="44.97174" lon="3.65323">
        <ele>730.3</ele>
        <time>2019-12-07T07:56:07Z</time>
      </trkpt>
      <trkpt lat="44.97174" lon="3.65327">
        <ele>730.5</ele>
        <time>2019-12-07T07:56:11Z</time>
      </trkpt>
      <trkpt lat="44.97175" lon="3.65328">
        <ele>730.6</ele>
        <time>2019-12-07T07:56:12Z</time>
      </trkpt>
      <trkpt lat="44.97175" lon="3.6533">
        <ele>730.7</ele>
        <time>2019-12-07T07:56:13Z</time>
      </trkpt>
      <trkpt lat="44.97175" lon="3.65331">
        <ele>730.8</ele>
        <time>2019-12-07T07:56:17Z</time>
      </trkpt>
      <trkpt lat="44.97175" lon="3.65332">
        <ele>730.8</ele>
        <time>2019-12-07T07:56:18Z</time>
      </trkpt>
      <trkpt lat="44.97176" lon="3.6535">
        <ele>731.8</ele>
        <time>2019-12-07T07:56:34Z</time>
      </trkpt>
      <trkpt lat="44.97176" lon="3.65351">
        <ele>731.9</ele>
        <time>2019-12-07T07:56:35Z</time>
      </trkpt>
      <trkpt lat="44.97176" lon="3.65352">
        <ele>732</ele>
        <time>2019-12-07T07:56:36Z</time>
      </trkpt>
      <trkpt lat="44.97176" lon="3.65354">
        <ele>732.1</ele>
        <time>2019-12-07T07:56:37Z</time>
      </trkpt>
      <trkpt lat="44.97177" lon="3.65356">
        <ele>732.2</ele>
        <time>2019-12-07T07:56:39Z</time>
      </trkpt>
      <trkpt lat="44.97177" lon="3.65358">
        <ele>732.4</ele>
        <time>2019-12-07T07:56:40Z</time>
      </trkpt>
      <trkpt lat="44.97177" lon="3.65359">
        <ele>732.5</ele>
        <time>2019-12-07T07:56:41Z</time>
      </trkpt>
      <trkpt lat="44.97179" lon="3.65367">
        <ele>733.1</ele>
        <time>2019-12-07T07:56:47Z</time>
      </trkpt>
      <trkpt lat="44.9718" lon="3.6537">
        <ele>733.3</ele>
        <time>2019-12-07T07:56:49Z</time>
      </trkpt>
      <trkpt lat="44.9718" lon="3.65371">
        <ele>733.4</ele>
        <time>2019-12-07T07:56:51Z</time>
      </trkpt>
      <trkpt lat="44.9718" lon="3.65371">
        <ele>733.4</ele>
        <time>2019-12-07T07:56:54Z</time>
      </trkpt>
      <trkpt lat="44.97182" lon="3.65379">
        <ele>733.9</ele>
        <time>2019-12-07T07:57:04Z</time>
      </trkpt>
      <trkpt lat="44.97185" lon="3.65391">
        <ele>735</ele>
        <time>2019-12-07T07:57:11Z</time>
      </trkpt>
      <trkpt lat="44.97187" lon="3.654">
        <ele>736</ele>
        <time>2019-12-07T07:57:15Z</time>
      </trkpt>
      <trkpt lat="44.97191" lon="3.65419">
        <ele>738</ele>
        <time>2019-12-07T07:57:25Z</time>
      </trkpt>
      <trkpt lat="44.97192" lon="3.65419">
        <ele>738.1</ele>
        <time>2019-12-07T07:57:27Z</time>
      </trkpt>
      <trkpt lat="44.97193" lon="3.65418">
        <ele>738.3</ele>
        <time>2019-12-07T07:57:28Z</time>
      </trkpt>
      <trkpt lat="44.97199" lon="3.65413">
        <ele>739</ele>
        <time>2019-12-07T07:57:40Z</time>
      </trkpt>
      <trkpt lat="44.97199" lon="3.65409">
        <ele>739.3</ele>
        <time>2019-12-07T07:57:44Z</time>
      </trkpt>
      <trkpt lat="44.97199" lon="3.65408">
        <ele>739.4</ele>
        <time>2019-12-07T07:57:45Z</time>
      </trkpt>
      <trkpt lat="44.972" lon="3.654">
        <ele>739.9</ele>
        <time>2019-12-07T07:57:50Z</time>
      </trkpt>
      <trkpt lat="44.972" lon="3.65399">
        <ele>740.1</ele>
        <time>2019-12-07T07:57:51Z</time>
      </trkpt>
      <trkpt lat="44.972" lon="3.65394">
        <ele>740.5</ele>
        <time>2019-12-07T07:57:54Z</time>
      </trkpt>
      <trkpt lat="44.97201" lon="3.65393">
        <ele>740.7</ele>
        <time>2019-12-07T07:57:55Z</time>
      </trkpt>
      <trkpt lat="44.97202" lon="3.6539">
        <ele>741</ele>
        <time>2019-12-07T07:57:57Z</time>
      </trkpt>
      <trkpt lat="44.97204" lon="3.65388">
        <ele>741.4</ele>
        <time>2019-12-07T07:58:00Z</time>
      </trkpt>
      <trkpt lat="44.97206" lon="3.65389">
        <ele>741.6</ele>
        <time>2019-12-07T07:58:03Z</time>
      </trkpt>
      <trkpt lat="44.97206" lon="3.65394">
        <ele>742.1</ele>
        <time>2019-12-07T07:58:09Z</time>
      </trkpt>
      <trkpt lat="44.97207" lon="3.65397">
        <ele>742.3</ele>
        <time>2019-12-07T07:58:12Z</time>
      </trkpt>
      <trkpt lat="44.97213" lon="3.65417">
        <ele>743.9</ele>
        <time>2019-12-07T07:58:31Z</time>
      </trkpt>
      <trkpt lat="44.97213" lon="3.65423">
        <ele>744.2</ele>
        <time>2019-12-07T07:58:35Z</time>
      </trkpt>
      <trkpt lat="44.97213" lon="3.65427">
        <ele>744.4</ele>
        <time>2019-12-07T07:58:38Z</time>
      </trkpt>
      <trkpt lat="44.97214" lon="3.6543">
        <ele>744.6</ele>
        <time>2019-12-07T07:58:40Z</time>
      </trkpt>
      <trkpt lat="44.97214" lon="3.65431">
        <ele>744.7</ele>
        <time>2019-12-07T07:58:41Z</time>
      </trkpt>
      <trkpt lat="44.97216" lon="3.65443">
        <ele>745.4</ele>
        <time>2019-12-07T07:58:49Z</time>
      </trkpt>
      <trkpt lat="44.97217" lon="3.65449">
        <ele>745.7</ele>
        <time>2019-12-07T07:58:54Z</time>
      </trkpt>
      <trkpt lat="44.97216" lon="3.65452">
        <ele>745.8</ele>
        <time>2019-12-07T07:58:56Z</time>
      </trkpt>
      <trkpt lat="44.97218" lon="3.6546">
        <ele>746.6</ele>
        <time>2019-12-07T07:59:03Z</time>
      </trkpt>
      <trkpt lat="44.9722" lon="3.65465">
        <ele>747</ele>
        <time>2019-12-07T07:59:08Z</time>
      </trkpt>
      <trkpt lat="44.9722" lon="3.65469">
        <ele>747.3</ele>
        <time>2019-12-07T07:59:11Z</time>
      </trkpt>
      <trkpt lat="44.97221" lon="3.65471">
        <ele>747.5</ele>
        <time>2019-12-07T07:59:13Z</time>
      </trkpt>
      <trkpt lat="44.97229" lon="3.65493">
        <ele>749.7</ele>
        <time>2019-12-07T07:59:32Z</time>
      </trkpt>
      <trkpt lat="44.9723" lon="3.65497">
        <ele>750.1</ele>
        <time>2019-12-07T07:59:36Z</time>
      </trkpt>
      <trkpt lat="44.97232" lon="3.65503">
        <ele>750.7</ele>
        <time>2019-12-07T07:59:43Z</time>
      </trkpt>
      <trkpt lat="44.97234" lon="3.65508">
        <ele>751.3</ele>
        <time>2019-12-07T07:59:47Z</time>
      </trkpt>
      <trkpt lat="44.97234" lon="3.6551">
        <ele>751.5</ele>
        <time>2019-12-07T07:59:49Z</time>
      </trkpt>
      <trkpt lat="44.97234" lon="3.65514">
        <ele>751.7</ele>
        <time>2019-12-07T07:59:52Z</time>
      </trkpt>
      <trkpt lat="44.97234" lon="3.65516">
        <ele>751.9</ele>
        <time>2019-12-07T07:59:54Z</time>
      </trkpt>
      <trkpt lat="44.97235" lon="3.65519">
        <ele>752.1</ele>
        <time>2019-12-07T07:59:56Z</time>
      </trkpt>
      <trkpt lat="44.97236" lon="3.65525">
        <ele>752.5</ele>
        <time>2019-12-07T08:00:00Z</time>
      </trkpt>
      <trkpt lat="44.97236" lon="3.65528">
        <ele>752.8</ele>
        <time>2019-12-07T08:00:02Z</time>
      </trkpt>
      <trkpt lat="44.97237" lon="3.65535">
        <ele>753.3</ele>
        <time>2019-12-07T08:00:07Z</time>
      </trkpt>
      <trkpt lat="44.97238" lon="3.65538">
        <ele>753.5</ele>
        <time>2019-12-07T08:00:09Z</time>
      </trkpt>
      <trkpt lat="44.97239" lon="3.6554">
        <ele>753.7</ele>
        <time>2019-12-07T08:00:11Z</time>
      </trkpt>
      <trkpt lat="44.97238" lon="3.65543">
        <ele>753.9</ele>
        <time>2019-12-07T08:00:13Z</time>
      </trkpt>
      <trkpt lat="44.97238" lon="3.65544">
        <ele>754</ele>
        <time>2019-12-07T08:00:14Z</time>
      </trkpt>
      <trkpt lat="44.97239" lon="3.65546">
        <ele>754.1</ele>
        <time>2019-12-07T08:00:15Z</time>
      </trkpt>
      <trkpt lat="44.97239" lon="3.65547">
        <ele>754.2</ele>
        <time>2019-12-07T08:00:16Z</time>
      </trkpt>
      <trkpt lat="44.97239" lon="3.65549">
        <ele>754.3</ele>
        <time>2019-12-07T08:00:17Z</time>
      </trkpt>
      <trkpt lat="44.97239" lon="3.6555">
        <ele>754.4</ele>
        <time>2019-12-07T08:00:18Z</time>
      </trkpt>
      <trkpt lat="44.9724" lon="3.65551">
        <ele>754.5</ele>
        <time>2019-12-07T08:00:19Z</time>
      </trkpt>
      <trkpt lat="44.9724" lon="3.65553">
        <ele>754.6</ele>
        <time>2019-12-07T08:00:20Z</time>
      </trkpt>
      <trkpt lat="44.97241" lon="3.65557">
        <ele>754.9</ele>
        <time>2019-12-07T08:00:23Z</time>
      </trkpt>
      <trkpt lat="44.97241" lon="3.65556">
        <ele>754.9</ele>
        <time>2019-12-07T08:00:26Z</time>
      </trkpt>
      <trkpt lat="44.97242" lon="3.65558">
        <ele>755</ele>
        <time>2019-12-07T08:00:29Z</time>
      </trkpt>
      <trkpt lat="44.97243" lon="3.65563">
        <ele>755.5</ele>
        <time>2019-12-07T08:00:32Z</time>
      </trkpt>
      <trkpt lat="44.97251" lon="3.65599">
        <ele>757.1</ele>
        <time>2019-12-07T08:00:50Z</time>
      </trkpt>
      <trkpt lat="44.97254" lon="3.65605">
        <ele>757.3</ele>
        <time>2019-12-07T08:00:53Z</time>
      </trkpt>
      <trkpt lat="44.97258" lon="3.65612">
        <ele>757.4</ele>
        <time>2019-12-07T08:00:56Z</time>
      </trkpt>
      <trkpt lat="44.97264" lon="3.65622">
        <ele>757.5</ele>
        <time>2019-12-07T08:01:02Z</time>
      </trkpt>
      <trkpt lat="44.97267" lon="3.65624">
        <ele>757.5</ele>
        <time>2019-12-07T08:01:04Z</time>
      </trkpt>
      <trkpt lat="44.97267" lon="3.65624">
        <ele>757.6</ele>
        <time>2019-12-07T08:01:07Z</time>
      </trkpt>
      <trkpt lat="44.97268" lon="3.65624">
        <ele>757.6</ele>
        <time>2019-12-07T08:01:09Z</time>
      </trkpt>
      <trkpt lat="44.97268" lon="3.65629">
        <ele>757.7</ele>
        <time>2019-12-07T08:01:31Z</time>
      </trkpt>
      <trkpt lat="44.97267" lon="3.65631">
        <ele>757.8</ele>
        <time>2019-12-07T08:01:32Z</time>
      </trkpt>
      <trkpt lat="44.97267" lon="3.65633">
        <ele>757.9</ele>
        <time>2019-12-07T08:01:33Z</time>
      </trkpt>
      <trkpt lat="44.97267" lon="3.65636">
        <ele>758</ele>
        <time>2019-12-07T08:01:34Z</time>
      </trkpt>
      <trkpt lat="44.97268" lon="3.65639">
        <ele>758</ele>
        <time>2019-12-07T08:01:35Z</time>
      </trkpt>
      <trkpt lat="44.97268" lon="3.65642">
        <ele>758.1</ele>
        <time>2019-12-07T08:01:36Z</time>
      </trkpt>
      <trkpt lat="44.9727" lon="3.65645">
        <ele>758.1</ele>
        <time>2019-12-07T08:01:37Z</time>
      </trkpt>
      <trkpt lat="44.97275" lon="3.65659">
        <ele>758.3</ele>
        <time>2019-12-07T08:01:41Z</time>
      </trkpt>
      <trkpt lat="44.97277" lon="3.65667">
        <ele>758.4</ele>
        <time>2019-12-07T08:01:43Z</time>
      </trkpt>
      <trkpt lat="44.97292" lon="3.65709">
        <ele>759</ele>
        <time>2019-12-07T08:01:54Z</time>
      </trkpt>
      <trkpt lat="44.97299" lon="3.65727">
        <ele>759.3</ele>
        <time>2019-12-07T08:01:58Z</time>
      </trkpt>
      <trkpt lat="44.97309" lon="3.65746">
        <ele>759.3</ele>
        <time>2019-12-07T08:02:02Z</time>
      </trkpt>
      <trkpt lat="44.97313" lon="3.6575">
        <ele>759.3</ele>
        <time>2019-12-07T08:02:03Z</time>
      </trkpt>
      <trkpt lat="44.97316" lon="3.65754">
        <ele>759.2</ele>
        <time>2019-12-07T08:02:04Z</time>
      </trkpt>
      <trkpt lat="44.97328" lon="3.65765">
        <ele>759.1</ele>
        <time>2019-12-07T08:02:07Z</time>
      </trkpt>
      <trkpt lat="44.9737" lon="3.6582">
        <ele>758.8</ele>
        <time>2019-12-07T08:02:17Z</time>
      </trkpt>
      <trkpt lat="44.97378" lon="3.65833">
        <ele>758.5</ele>
        <time>2019-12-07T08:02:19Z</time>
      </trkpt>
      <trkpt lat="44.97399" lon="3.65873">
        <ele>758.1</ele>
        <time>2019-12-07T08:02:25Z</time>
      </trkpt>
      <trkpt lat="44.97409" lon="3.65894">
        <ele>757.4</ele>
        <time>2019-12-07T08:02:28Z</time>
      </trkpt>
      <trkpt lat="44.97441" lon="3.65965">
        <ele>752.9</ele>
        <time>2019-12-07T08:02:38Z</time>
      </trkpt>
      <trkpt lat="44.97468" lon="3.66026">
        <ele>750.1</ele>
        <time>2019-12-07T08:02:45Z</time>
      </trkpt>
      <trkpt lat="44.97494" lon="3.66079">
        <ele>748.2</ele>
        <time>2019-12-07T08:02:50Z</time>
      </trkpt>
      <trkpt lat="44.97509" lon="3.66112">
        <ele>748</ele>
        <time>2019-12-07T08:02:53Z</time>
      </trkpt>
      <trkpt lat="44.97513" lon="3.66123">
        <ele>748.1</ele>
        <time>2019-12-07T08:02:54Z</time>
      </trkpt>
      <trkpt lat="44.97516" lon="3.66135">
        <ele>748.2</ele>
        <time>2019-12-07T08:02:55Z</time>
      </trkpt>
      <trkpt lat="44.97514" lon="3.66147">
        <ele>748.3</ele>
        <time>2019-12-07T08:02:56Z</time>
      </trkpt>
      <trkpt lat="44.97511" lon="3.66156">
        <ele>748.6</ele>
        <time>2019-12-07T08:02:57Z</time>
      </trkpt>
      <trkpt lat="44.97507" lon="3.66163">
        <ele>749.1</ele>
        <time>2019-12-07T08:02:58Z</time>
      </trkpt>
      <trkpt lat="44.97502" lon="3.66168">
        <ele>749.5</ele>
        <time>2019-12-07T08:02:59Z</time>
      </trkpt>
      <trkpt lat="44.97497" lon="3.6617">
        <ele>749.5</ele>
        <time>2019-12-07T08:03:00Z</time>
      </trkpt>
      <trkpt lat="44.97491" lon="3.66171">
        <ele>749.5</ele>
        <time>2019-12-07T08:03:01Z</time>
      </trkpt>
      <trkpt lat="44.97486" lon="3.66172">
        <ele>750</ele>
        <time>2019-12-07T08:03:02Z</time>
      </trkpt>
      <trkpt lat="44.97455" lon="3.66185">
        <ele>752.5</ele>
        <time>2019-12-07T08:03:11Z</time>
      </trkpt>
      <trkpt lat="44.97436" lon="3.66191">
        <ele>753.1</ele>
        <time>2019-12-07T08:03:19Z</time>
      </trkpt>
      <trkpt lat="44.97428" lon="3.66195">
        <ele>753.4</ele>
        <time>2019-12-07T08:03:24Z</time>
      </trkpt>
      <trkpt lat="44.9742" lon="3.66202">
        <ele>754.2</ele>
        <time>2019-12-07T08:03:29Z</time>
      </trkpt>
      <trkpt lat="44.97415" lon="3.66211">
        <ele>755.2</ele>
        <time>2019-12-07T08:03:33Z</time>
      </trkpt>
      <trkpt lat="44.97395" lon="3.66228">
        <ele>757.6</ele>
        <time>2019-12-07T08:03:47Z</time>
      </trkpt>
      <trkpt lat="44.9738" lon="3.66236">
        <ele>758.3</ele>
        <time>2019-12-07T08:03:56Z</time>
      </trkpt>
      <trkpt lat="44.97375" lon="3.66238">
        <ele>758</ele>
        <time>2019-12-07T08:03:59Z</time>
      </trkpt>
      <trkpt lat="44.97366" lon="3.66239">
        <ele>757.5</ele>
        <time>2019-12-07T08:04:06Z</time>
      </trkpt>
      <trkpt lat="44.97365" lon="3.6624">
        <ele>758</ele>
        <time>2019-12-07T08:04:07Z</time>
      </trkpt>
      <trkpt lat="44.97364" lon="3.66242">
        <ele>758</ele>
        <time>2019-12-07T08:04:08Z</time>
      </trkpt>
      <trkpt lat="44.97363" lon="3.66243">
        <ele>757.8</ele>
        <time>2019-12-07T08:04:09Z</time>
      </trkpt>
      <trkpt lat="44.97362" lon="3.66245">
        <ele>758.4</ele>
        <time>2019-12-07T08:04:10Z</time>
      </trkpt>
      <trkpt lat="44.97352" lon="3.66252">
        <ele>758.3</ele>
        <time>2019-12-07T08:04:18Z</time>
      </trkpt>
      <trkpt lat="44.97339" lon="3.66271">
        <ele>759.7</ele>
        <time>2019-12-07T08:04:32Z</time>
      </trkpt>
      <trkpt lat="44.97336" lon="3.66288">
        <ele>760.4</ele>
        <time>2019-12-07T08:04:41Z</time>
      </trkpt>
      <trkpt lat="44.97335" lon="3.66293">
        <ele>760.4</ele>
        <time>2019-12-07T08:04:44Z</time>
      </trkpt>
      <trkpt lat="44.97332" lon="3.66308">
        <ele>759.6</ele>
        <time>2019-12-07T08:04:53Z</time>
      </trkpt>
      <trkpt lat="44.97331" lon="3.66309">
        <ele>759.4</ele>
        <time>2019-12-07T08:04:55Z</time>
      </trkpt>
      <trkpt lat="44.97331" lon="3.66309">
        <ele>759.4</ele>
        <time>2019-12-07T08:04:58Z</time>
      </trkpt>
      <trkpt lat="44.97331" lon="3.66309">
        <ele>759.4</ele>
        <time>2019-12-07T08:05:00Z</time>
      </trkpt>
      <trkpt lat="44.97331" lon="3.66318">
        <ele>758.9</ele>
        <time>2019-12-07T08:06:59Z</time>
      </trkpt>
      <trkpt lat="44.97331" lon="3.66324">
        <ele>758.6</ele>
        <time>2019-12-07T08:07:00Z</time>
      </trkpt>
      <trkpt lat="44.97332" lon="3.66331">
        <ele>758</ele>
        <time>2019-12-07T08:07:01Z</time>
      </trkpt>
      <trkpt lat="44.97334" lon="3.66337">
        <ele>758.4</ele>
        <time>2019-12-07T08:07:02Z</time>
      </trkpt>
      <trkpt lat="44.97336" lon="3.66344">
        <ele>758.5</ele>
        <time>2019-12-07T08:07:03Z</time>
      </trkpt>
      <trkpt lat="44.97344" lon="3.66362">
        <ele>758.6</ele>
        <time>2019-12-07T08:07:06Z</time>
      </trkpt>
      <trkpt lat="44.97346" lon="3.6637">
        <ele>758.6</ele>
        <time>2019-12-07T08:07:07Z</time>
      </trkpt>
      <trkpt lat="44.97351" lon="3.66386">
        <ele>758</ele>
        <time>2019-12-07T08:07:09Z</time>
      </trkpt>
      <trkpt lat="44.97352" lon="3.66394">
        <ele>758.3</ele>
        <time>2019-12-07T08:07:10Z</time>
      </trkpt>
      <trkpt lat="44.97359" lon="3.6644">
        <ele>754.7</ele>
        <time>2019-12-07T08:07:15Z</time>
      </trkpt>
      <trkpt lat="44.97362" lon="3.66449">
        <ele>754.4</ele>
        <time>2019-12-07T08:07:16Z</time>
      </trkpt>
      <trkpt lat="44.97366" lon="3.66458">
        <ele>754.3</ele>
        <time>2019-12-07T08:07:17Z</time>
      </trkpt>
      <trkpt lat="44.97383" lon="3.66499">
        <ele>756.9</ele>
        <time>2019-12-07T08:07:22Z</time>
      </trkpt>
      <trkpt lat="44.97386" lon="3.66507">
        <ele>757.6</ele>
        <time>2019-12-07T08:07:23Z</time>
      </trkpt>
      <trkpt lat="44.97388" lon="3.66517">
        <ele>758.4</ele>
        <time>2019-12-07T08:07:24Z</time>
      </trkpt>
      <trkpt lat="44.97389" lon="3.66526">
        <ele>757.7</ele>
        <time>2019-12-07T08:07:25Z</time>
      </trkpt>
      <trkpt lat="44.97391" lon="3.66535">
        <ele>758.4</ele>
        <time>2019-12-07T08:07:26Z</time>
      </trkpt>
      <trkpt lat="44.97394" lon="3.66545">
        <ele>757.1</ele>
        <time>2019-12-07T08:07:27Z</time>
      </trkpt>
      <trkpt lat="44.97397" lon="3.66555">
        <ele>759.5</ele>
        <time>2019-12-07T08:07:28Z</time>
      </trkpt>
      <trkpt lat="44.97402" lon="3.66575">
        <ele>759.7</ele>
        <time>2019-12-07T08:07:30Z</time>
      </trkpt>
      <trkpt lat="44.97405" lon="3.66596">
        <ele>760.2</ele>
        <time>2019-12-07T08:07:32Z</time>
      </trkpt>
      <trkpt lat="44.97406" lon="3.66607">
        <ele>759.9</ele>
        <time>2019-12-07T08:07:33Z</time>
      </trkpt>
      <trkpt lat="44.97405" lon="3.66617">
        <ele>759.6</ele>
        <time>2019-12-07T08:07:34Z</time>
      </trkpt>
      <trkpt lat="44.97404" lon="3.66628">
        <ele>759</ele>
        <time>2019-12-07T08:07:35Z</time>
      </trkpt>
      <trkpt lat="44.97403" lon="3.6664">
        <ele>758.5</ele>
        <time>2019-12-07T08:07:36Z</time>
      </trkpt>
      <trkpt lat="44.97401" lon="3.66662">
        <ele>755.9</ele>
        <time>2019-12-07T08:07:38Z</time>
      </trkpt>
      <trkpt lat="44.974" lon="3.66673">
        <ele>753.8</ele>
        <time>2019-12-07T08:07:39Z</time>
      </trkpt>
      <trkpt lat="44.97397" lon="3.66703">
        <ele>751</ele>
        <time>2019-12-07T08:07:42Z</time>
      </trkpt>
      <trkpt lat="44.97396" lon="3.66718">
        <ele>750.9</ele>
        <time>2019-12-07T08:07:44Z</time>
      </trkpt>
      <trkpt lat="44.97396" lon="3.66733">
        <ele>750.9</ele>
        <time>2019-12-07T08:07:46Z</time>
      </trkpt>
      <trkpt lat="44.97397" lon="3.66747">
        <ele>751.2</ele>
        <time>2019-12-07T08:07:48Z</time>
      </trkpt>
      <trkpt lat="44.97398" lon="3.66754">
        <ele>753.1</ele>
        <time>2019-12-07T08:07:49Z</time>
      </trkpt>
      <trkpt lat="44.97398" lon="3.66761">
        <ele>753.4</ele>
        <time>2019-12-07T08:07:50Z</time>
      </trkpt>
      <trkpt lat="44.97398" lon="3.66768">
        <ele>753.6</ele>
        <time>2019-12-07T08:07:51Z</time>
      </trkpt>
      <trkpt lat="44.97398" lon="3.66775">
        <ele>753.8</ele>
        <time>2019-12-07T08:07:52Z</time>
      </trkpt>
      <trkpt lat="44.97384" lon="3.66826">
        <ele>747.5</ele>
        <time>2019-12-07T08:08:02Z</time>
      </trkpt>
      <trkpt lat="44.97381" lon="3.66832">
        <ele>746.1</ele>
        <time>2019-12-07T08:08:03Z</time>
      </trkpt>
      <trkpt lat="44.97379" lon="3.66837">
        <ele>746.6</ele>
        <time>2019-12-07T08:08:04Z</time>
      </trkpt>
      <trkpt lat="44.97378" lon="3.66843">
        <ele>745.3</ele>
        <time>2019-12-07T08:08:05Z</time>
      </trkpt>
      <trkpt lat="44.97377" lon="3.66849">
        <ele>745.9</ele>
        <time>2019-12-07T08:08:06Z</time>
      </trkpt>
      <trkpt lat="44.97375" lon="3.66856">
        <ele>744.7</ele>
        <time>2019-12-07T08:08:07Z</time>
      </trkpt>
      <trkpt lat="44.97372" lon="3.66862">
        <ele>743.5</ele>
        <time>2019-12-07T08:08:08Z</time>
      </trkpt>
      <trkpt lat="44.97369" lon="3.66868">
        <ele>742.6</ele>
        <time>2019-12-07T08:08:09Z</time>
      </trkpt>
      <trkpt lat="44.97366" lon="3.66875">
        <ele>741.4</ele>
        <time>2019-12-07T08:08:10Z</time>
      </trkpt>
      <trkpt lat="44.97357" lon="3.66892">
        <ele>740</ele>
        <time>2019-12-07T08:08:13Z</time>
      </trkpt>
      <trkpt lat="44.97343" lon="3.66918">
        <ele>737</ele>
        <time>2019-12-07T08:08:17Z</time>
      </trkpt>
      <trkpt lat="44.97325" lon="3.66948">
        <ele>733.1</ele>
        <time>2019-12-07T08:08:21Z</time>
      </trkpt>
      <trkpt lat="44.97321" lon="3.66954">
        <ele>731.4</ele>
        <time>2019-12-07T08:08:22Z</time>
      </trkpt>
      <trkpt lat="44.97315" lon="3.66959">
        <ele>730.8</ele>
        <time>2019-12-07T08:08:23Z</time>
      </trkpt>
      <trkpt lat="44.9731" lon="3.66964">
        <ele>729.3</ele>
        <time>2019-12-07T08:08:24Z</time>
      </trkpt>
      <trkpt lat="44.97305" lon="3.6697">
        <ele>727.9</ele>
        <time>2019-12-07T08:08:25Z</time>
      </trkpt>
      <trkpt lat="44.97301" lon="3.66978">
        <ele>727.3</ele>
        <time>2019-12-07T08:08:26Z</time>
      </trkpt>
      <trkpt lat="44.97298" lon="3.66986">
        <ele>727.1</ele>
        <time>2019-12-07T08:08:27Z</time>
      </trkpt>
      <trkpt lat="44.97292" lon="3.67003">
        <ele>726.7</ele>
        <time>2019-12-07T08:08:29Z</time>
      </trkpt>
      <trkpt lat="44.9729" lon="3.67011">
        <ele>726.4</ele>
        <time>2019-12-07T08:08:30Z</time>
      </trkpt>
      <trkpt lat="44.97289" lon="3.67018">
        <ele>726.7</ele>
        <time>2019-12-07T08:08:31Z</time>
      </trkpt>
      <trkpt lat="44.9729" lon="3.67024">
        <ele>726.9</ele>
        <time>2019-12-07T08:08:32Z</time>
      </trkpt>
      <trkpt lat="44.9729" lon="3.67031">
        <ele>727.1</ele>
        <time>2019-12-07T08:08:33Z</time>
      </trkpt>
      <trkpt lat="44.97291" lon="3.67062">
        <ele>727.8</ele>
        <time>2019-12-07T08:08:37Z</time>
      </trkpt>
      <trkpt lat="44.97291" lon="3.67078">
        <ele>727.3</ele>
        <time>2019-12-07T08:08:39Z</time>
      </trkpt>
      <trkpt lat="44.97293" lon="3.67084">
        <ele>727.1</ele>
        <time>2019-12-07T08:08:40Z</time>
      </trkpt>
      <trkpt lat="44.97297" lon="3.67092">
        <ele>728</ele>
        <time>2019-12-07T08:08:51Z</time>
      </trkpt>
      <trkpt lat="44.97293" lon="3.67085">
        <ele>726.9</ele>
        <time>2019-12-07T08:08:55Z</time>
      </trkpt>
      <trkpt lat="44.97292" lon="3.67083">
        <ele>727.1</ele>
        <time>2019-12-07T08:08:56Z</time>
      </trkpt>
      <trkpt lat="44.97292" lon="3.6708">
        <ele>727.3</ele>
        <time>2019-12-07T08:08:57Z</time>
      </trkpt>
      <trkpt lat="44.97291" lon="3.67078">
        <ele>727.3</ele>
        <time>2019-12-07T08:08:58Z</time>
      </trkpt>
      <trkpt lat="44.9729" lon="3.67076">
        <ele>726.8</ele>
        <time>2019-12-07T08:08:59Z</time>
      </trkpt>
      <trkpt lat="44.9729" lon="3.67073">
        <ele>726.8</ele>
        <time>2019-12-07T08:09:00Z</time>
      </trkpt>
      <trkpt lat="44.97291" lon="3.67071">
        <ele>727.6</ele>
        <time>2019-12-07T08:09:01Z</time>
      </trkpt>
      <trkpt lat="44.97292" lon="3.67069">
        <ele>727.6</ele>
        <time>2019-12-07T08:09:02Z</time>
      </trkpt>
      <trkpt lat="44.97295" lon="3.67074">
        <ele>728.1</ele>
        <time>2019-12-07T08:09:10Z</time>
      </trkpt>
      <trkpt lat="44.97297" lon="3.67077">
        <ele>728.6</ele>
        <time>2019-12-07T08:09:14Z</time>
      </trkpt>
      <trkpt lat="44.973" lon="3.67083">
        <ele>729.2</ele>
        <time>2019-12-07T08:09:21Z</time>
      </trkpt>
      <trkpt lat="44.97306" lon="3.67088">
        <ele>730.6</ele>
        <time>2019-12-07T08:09:28Z</time>
      </trkpt>
      <trkpt lat="44.97313" lon="3.67091">
        <ele>731.9</ele>
        <time>2019-12-07T08:09:35Z</time>
      </trkpt>
      <trkpt lat="44.97314" lon="3.67092">
        <ele>731.9</ele>
        <time>2019-12-07T08:09:36Z</time>
      </trkpt>
      <trkpt lat="44.97317" lon="3.67093">
        <ele>732.6</ele>
        <time>2019-12-07T08:09:39Z</time>
      </trkpt>
      <trkpt lat="44.97327" lon="3.67098">
        <ele>734.4</ele>
        <time>2019-12-07T08:09:52Z</time>
      </trkpt>
      <trkpt lat="44.97328" lon="3.67098">
        <ele>735.2</ele>
        <time>2019-12-07T08:09:53Z</time>
      </trkpt>
      <trkpt lat="44.97333" lon="3.67098">
        <ele>735.6</ele>
        <time>2019-12-07T08:10:00Z</time>
      </trkpt>
      <trkpt lat="44.97334" lon="3.67098">
        <ele>736.8</ele>
        <time>2019-12-07T08:10:02Z</time>
      </trkpt>
      <trkpt lat="44.97339" lon="3.67099">
        <ele>737</ele>
        <time>2019-12-07T08:10:10Z</time>
      </trkpt>
      <trkpt lat="44.9734" lon="3.67099">
        <ele>737.7</ele>
        <time>2019-12-07T08:10:11Z</time>
      </trkpt>
      <trkpt lat="44.97341" lon="3.67099">
        <ele>737.7</ele>
        <time>2019-12-07T08:10:13Z</time>
      </trkpt>
      <trkpt lat="44.97342" lon="3.67098">
        <ele>737.7</ele>
        <time>2019-12-07T08:10:14Z</time>
      </trkpt>
      <trkpt lat="44.97343" lon="3.67096">
        <ele>738.9</ele>
        <time>2019-12-07T08:10:19Z</time>
      </trkpt>
      <trkpt lat="44.97336" lon="3.67061">
        <ele>739.7</ele>
        <time>2019-12-07T08:11:10Z</time>
      </trkpt>
      <trkpt lat="44.97336" lon="3.6706">
        <ele>739.7</ele>
        <time>2019-12-07T08:11:11Z</time>
      </trkpt>
      <trkpt lat="44.97335" lon="3.67059">
        <ele>739.9</ele>
        <time>2019-12-07T08:11:12Z</time>
      </trkpt>
      <trkpt lat="44.97335" lon="3.67057">
        <ele>739.9</ele>
        <time>2019-12-07T08:11:13Z</time>
      </trkpt>
      <trkpt lat="44.97331" lon="3.67039">
        <ele>739.4</ele>
        <time>2019-12-07T08:11:28Z</time>
      </trkpt>
      <trkpt lat="44.97331" lon="3.67035">
        <ele>739.5</ele>
        <time>2019-12-07T08:11:30Z</time>
      </trkpt>
      <trkpt lat="44.97331" lon="3.67033">
        <ele>739.5</ele>
        <time>2019-12-07T08:11:31Z</time>
      </trkpt>
      <trkpt lat="44.97332" lon="3.67032">
        <ele>739.5</ele>
        <time>2019-12-07T08:11:32Z</time>
      </trkpt>
      <trkpt lat="44.97334" lon="3.67031">
        <ele>740.6</ele>
        <time>2019-12-07T08:11:33Z</time>
      </trkpt>
      <trkpt lat="44.97335" lon="3.67032">
        <ele>740.6</ele>
        <time>2019-12-07T08:11:34Z</time>
      </trkpt>
      <trkpt lat="44.97337" lon="3.67033">
        <ele>741.7</ele>
        <time>2019-12-07T08:11:37Z</time>
      </trkpt>
      <trkpt lat="44.97341" lon="3.67037">
        <ele>742.7</ele>
        <time>2019-12-07T08:11:43Z</time>
      </trkpt>
      <trkpt lat="44.97342" lon="3.67037">
        <ele>742.7</ele>
        <time>2019-12-07T08:11:44Z</time>
      </trkpt>
      <trkpt lat="44.97343" lon="3.67038">
        <ele>743.7</ele>
        <time>2019-12-07T08:11:45Z</time>
      </trkpt>
      <trkpt lat="44.97344" lon="3.67038">
        <ele>743.5</ele>
        <time>2019-12-07T08:11:46Z</time>
      </trkpt>
      <trkpt lat="44.97345" lon="3.67039">
        <ele>743.5</ele>
        <time>2019-12-07T08:11:47Z</time>
      </trkpt>
      <trkpt lat="44.97359" lon="3.67047">
        <ele>747.8</ele>
        <time>2019-12-07T08:12:02Z</time>
      </trkpt>
      <trkpt lat="44.97362" lon="3.67048">
        <ele>748.7</ele>
        <time>2019-12-07T08:12:05Z</time>
      </trkpt>
      <trkpt lat="44.97363" lon="3.67048">
        <ele>748.7</ele>
        <time>2019-12-07T08:12:06Z</time>
      </trkpt>
      <trkpt lat="44.97368" lon="3.67048">
        <ele>750.4</ele>
        <time>2019-12-07T08:12:14Z</time>
      </trkpt>
      <trkpt lat="44.9741" lon="3.67033">
        <ele>762.8</ele>
        <time>2019-12-07T08:13:22Z</time>
      </trkpt>
      <trkpt lat="44.97412" lon="3.67033">
        <ele>762.8</ele>
        <time>2019-12-07T08:13:23Z</time>
      </trkpt>
      <trkpt lat="44.97413" lon="3.67032">
        <ele>763.5</ele>
        <time>2019-12-07T08:13:24Z</time>
      </trkpt>
      <trkpt lat="44.97419" lon="3.67028">
        <ele>765.6</ele>
        <time>2019-12-07T08:13:29Z</time>
      </trkpt>
      <trkpt lat="44.97433" lon="3.67022">
        <ele>768.6</ele>
        <time>2019-12-07T08:13:41Z</time>
      </trkpt>
      <trkpt lat="44.97459" lon="3.67019">
        <ele>774.4</ele>
        <time>2019-12-07T08:13:58Z</time>
      </trkpt>
      <trkpt lat="44.97461" lon="3.67018">
        <ele>774.9</ele>
        <time>2019-12-07T08:14:00Z</time>
      </trkpt>
      <trkpt lat="44.97465" lon="3.67017">
        <ele>775.3</ele>
        <time>2019-12-07T08:14:03Z</time>
      </trkpt>
      <trkpt lat="44.97466" lon="3.67017">
        <ele>775.3</ele>
        <time>2019-12-07T08:14:04Z</time>
      </trkpt>
      <trkpt lat="44.97469" lon="3.67016">
        <ele>776.4</ele>
        <time>2019-12-07T08:14:06Z</time>
      </trkpt>
      <trkpt lat="44.97483" lon="3.67013">
        <ele>778.9</ele>
        <time>2019-12-07T08:14:18Z</time>
      </trkpt>
      <trkpt lat="44.97507" lon="3.67009">
        <ele>783.1</ele>
        <time>2019-12-07T08:14:34Z</time>
      </trkpt>
      <trkpt lat="44.97512" lon="3.67008">
        <ele>783.5</ele>
        <time>2019-12-07T08:14:38Z</time>
      </trkpt>
      <trkpt lat="44.97514" lon="3.67008">
        <ele>783.9</ele>
        <time>2019-12-07T08:14:40Z</time>
      </trkpt>
      <trkpt lat="44.97532" lon="3.67011">
        <ele>786.3</ele>
        <time>2019-12-07T08:14:53Z</time>
      </trkpt>
      <trkpt lat="44.97535" lon="3.67012">
        <ele>786.7</ele>
        <time>2019-12-07T08:14:55Z</time>
      </trkpt>
      <trkpt lat="44.97538" lon="3.67012">
        <ele>786.5</ele>
        <time>2019-12-07T08:14:57Z</time>
      </trkpt>
      <trkpt lat="44.9754" lon="3.67013">
        <ele>786.9</ele>
        <time>2019-12-07T08:14:59Z</time>
      </trkpt>
      <trkpt lat="44.97551" lon="3.67014">
        <ele>788.1</ele>
        <time>2019-12-07T08:15:13Z</time>
      </trkpt>
      <trkpt lat="44.97556" lon="3.67014">
        <ele>789</ele>
        <time>2019-12-07T08:15:18Z</time>
      </trkpt>
      <trkpt lat="44.97558" lon="3.67014">
        <ele>789.4</ele>
        <time>2019-12-07T08:15:20Z</time>
      </trkpt>
      <trkpt lat="44.97561" lon="3.67014">
        <ele>789.4</ele>
        <time>2019-12-07T08:15:22Z</time>
      </trkpt>
      <trkpt lat="44.97565" lon="3.67013">
        <ele>790.2</ele>
        <time>2019-12-07T08:15:31Z</time>
      </trkpt>
      <trkpt lat="44.97572" lon="3.67011">
        <ele>791.2</ele>
        <time>2019-12-07T08:15:40Z</time>
      </trkpt>
      <trkpt lat="44.97574" lon="3.67011">
        <ele>791.5</ele>
        <time>2019-12-07T08:15:41Z</time>
      </trkpt>
      <trkpt lat="44.97575" lon="3.67011">
        <ele>791.5</ele>
        <time>2019-12-07T08:15:42Z</time>
      </trkpt>
      <trkpt lat="44.97576" lon="3.67011">
        <ele>791.7</ele>
        <time>2019-12-07T08:15:43Z</time>
      </trkpt>
      <trkpt lat="44.97582" lon="3.67009">
        <ele>792</ele>
        <time>2019-12-07T08:15:47Z</time>
      </trkpt>
      <trkpt lat="44.97584" lon="3.67008">
        <ele>792.3</ele>
        <time>2019-12-07T08:15:49Z</time>
      </trkpt>
      <trkpt lat="44.97585" lon="3.67007">
        <ele>792.6</ele>
        <time>2019-12-07T08:15:50Z</time>
      </trkpt>
      <trkpt lat="44.97586" lon="3.67007">
        <ele>792.9</ele>
        <time>2019-12-07T08:15:51Z</time>
      </trkpt>
      <trkpt lat="44.97587" lon="3.67006">
        <ele>792.9</ele>
        <time>2019-12-07T08:15:52Z</time>
      </trkpt>
      <trkpt lat="44.97588" lon="3.67005">
        <ele>793.2</ele>
        <time>2019-12-07T08:15:53Z</time>
      </trkpt>
      <trkpt lat="44.97606" lon="3.66998">
        <ele>795.2</ele>
        <time>2019-12-07T08:16:08Z</time>
      </trkpt>
      <trkpt lat="44.97611" lon="3.66994">
        <ele>795.8</ele>
        <time>2019-12-07T08:16:14Z</time>
      </trkpt>
      <trkpt lat="44.97612" lon="3.66993">
        <ele>795.8</ele>
        <time>2019-12-07T08:16:15Z</time>
      </trkpt>
      <trkpt lat="44.97618" lon="3.66987">
        <ele>796.7</ele>
        <time>2019-12-07T08:16:22Z</time>
      </trkpt>
      <trkpt lat="44.9762" lon="3.66983">
        <ele>797.4</ele>
        <time>2019-12-07T08:16:25Z</time>
      </trkpt>
      <trkpt lat="44.97621" lon="3.66982">
        <ele>797.4</ele>
        <time>2019-12-07T08:16:26Z</time>
      </trkpt>
      <trkpt lat="44.97622" lon="3.66981">
        <ele>798</ele>
        <time>2019-12-07T08:16:27Z</time>
      </trkpt>
      <trkpt lat="44.97622" lon="3.6698">
        <ele>798</ele>
        <time>2019-12-07T08:16:28Z</time>
      </trkpt>
      <trkpt lat="44.97623" lon="3.66979">
        <ele>798</ele>
        <time>2019-12-07T08:16:29Z</time>
      </trkpt>
      <trkpt lat="44.97624" lon="3.66978">
        <ele>798</ele>
        <time>2019-12-07T08:16:30Z</time>
      </trkpt>
      <trkpt lat="44.97625" lon="3.66977">
        <ele>798.7</ele>
        <time>2019-12-07T08:16:31Z</time>
      </trkpt>
      <trkpt lat="44.97625" lon="3.66977">
        <ele>798.7</ele>
        <time>2019-12-07T08:16:32Z</time>
      </trkpt>
      <trkpt lat="44.97626" lon="3.66975">
        <ele>798.7</ele>
        <time>2019-12-07T08:16:33Z</time>
      </trkpt>
      <trkpt lat="44.97629" lon="3.66966">
        <ele>799.7</ele>
        <time>2019-12-07T08:16:44Z</time>
      </trkpt>
      <trkpt lat="44.97643" lon="3.66933">
        <ele>804.3</ele>
        <time>2019-12-07T08:19:10Z</time>
      </trkpt>
      <trkpt lat="44.97644" lon="3.66932">
        <ele>804.3</ele>
        <time>2019-12-07T08:19:11Z</time>
      </trkpt>
      <trkpt lat="44.97646" lon="3.66931">
        <ele>804.7</ele>
        <time>2019-12-07T08:19:12Z</time>
      </trkpt>
      <trkpt lat="44.97651" lon="3.66927">
        <ele>805.3</ele>
        <time>2019-12-07T08:19:16Z</time>
      </trkpt>
      <trkpt lat="44.97656" lon="3.66924">
        <ele>806.1</ele>
        <time>2019-12-07T08:19:20Z</time>
      </trkpt>
      <trkpt lat="44.97657" lon="3.66924">
        <ele>806.1</ele>
        <time>2019-12-07T08:19:21Z</time>
      </trkpt>
      <trkpt lat="44.97683" lon="3.66911">
        <ele>808.3</ele>
        <time>2019-12-07T08:19:39Z</time>
      </trkpt>
      <trkpt lat="44.97693" lon="3.66906">
        <ele>809.1</ele>
        <time>2019-12-07T08:19:46Z</time>
      </trkpt>
      <trkpt lat="44.97702" lon="3.66899">
        <ele>809.9</ele>
        <time>2019-12-07T08:19:53Z</time>
      </trkpt>
      <trkpt lat="44.9772" lon="3.66889">
        <ele>810.7</ele>
        <time>2019-12-07T08:20:06Z</time>
      </trkpt>
      <trkpt lat="44.97735" lon="3.66876">
        <ele>812.1</ele>
        <time>2019-12-07T08:20:17Z</time>
      </trkpt>
      <trkpt lat="44.97767" lon="3.66855">
        <ele>816</ele>
        <time>2019-12-07T08:20:39Z</time>
      </trkpt>
      <trkpt lat="44.97791" lon="3.66849">
        <ele>819</ele>
        <time>2019-12-07T08:20:53Z</time>
      </trkpt>
      <trkpt lat="44.97816" lon="3.66839">
        <ele>823.6</ele>
        <time>2019-12-07T08:21:12Z</time>
      </trkpt>
      <trkpt lat="44.97857" lon="3.66828">
        <ele>831.7</ele>
        <time>2019-12-07T08:21:41Z</time>
      </trkpt>
      <trkpt lat="44.9788" lon="3.66813">
        <ele>837.4</ele>
        <time>2019-12-07T08:22:01Z</time>
      </trkpt>
      <trkpt lat="44.97896" lon="3.668">
        <ele>842</ele>
        <time>2019-12-07T08:22:16Z</time>
      </trkpt>
      <trkpt lat="44.97912" lon="3.66788">
        <ele>846.1</ele>
        <time>2019-12-07T08:22:31Z</time>
      </trkpt>
      <trkpt lat="44.97931" lon="3.66777">
        <ele>851</ele>
        <time>2019-12-07T08:22:48Z</time>
      </trkpt>
      <trkpt lat="44.97941" lon="3.66772">
        <ele>853.8</ele>
        <time>2019-12-07T08:22:57Z</time>
      </trkpt>
      <trkpt lat="44.97942" lon="3.66772">
        <ele>854.1</ele>
        <time>2019-12-07T08:22:58Z</time>
      </trkpt>
      <trkpt lat="44.97943" lon="3.66772">
        <ele>854.3</ele>
        <time>2019-12-07T08:22:59Z</time>
      </trkpt>
      <trkpt lat="44.97945" lon="3.66771">
        <ele>854.6</ele>
        <time>2019-12-07T08:23:00Z</time>
      </trkpt>
      <trkpt lat="44.97946" lon="3.66771">
        <ele>854.9</ele>
        <time>2019-12-07T08:23:01Z</time>
      </trkpt>
      <trkpt lat="44.97966" lon="3.66764">
        <ele>860.2</ele>
        <time>2019-12-07T08:23:19Z</time>
      </trkpt>
      <trkpt lat="44.97967" lon="3.66764">
        <ele>860.4</ele>
        <time>2019-12-07T08:23:20Z</time>
      </trkpt>
      <trkpt lat="44.97969" lon="3.66765">
        <ele>860.6</ele>
        <time>2019-12-07T08:23:21Z</time>
      </trkpt>
      <trkpt lat="44.9797" lon="3.66766">
        <ele>861</ele>
        <time>2019-12-07T08:23:22Z</time>
      </trkpt>
      <trkpt lat="44.97971" lon="3.66767">
        <ele>861.4</ele>
        <time>2019-12-07T08:23:23Z</time>
      </trkpt>
      <trkpt lat="44.97973" lon="3.66767">
        <ele>861.7</ele>
        <time>2019-12-07T08:23:24Z</time>
      </trkpt>
      <trkpt lat="44.97974" lon="3.66768">
        <ele>862</ele>
        <time>2019-12-07T08:23:25Z</time>
      </trkpt>
      <trkpt lat="44.97975" lon="3.66768">
        <ele>862.4</ele>
        <time>2019-12-07T08:23:26Z</time>
      </trkpt>
      <trkpt lat="44.97976" lon="3.66769">
        <ele>862.7</ele>
        <time>2019-12-07T08:23:27Z</time>
      </trkpt>
      <trkpt lat="44.97978" lon="3.6677">
        <ele>863</ele>
        <time>2019-12-07T08:23:28Z</time>
      </trkpt>
      <trkpt lat="44.97979" lon="3.6677">
        <ele>863.2</ele>
        <time>2019-12-07T08:23:29Z</time>
      </trkpt>
      <trkpt lat="44.97982" lon="3.66771">
        <ele>863.8</ele>
        <time>2019-12-07T08:23:32Z</time>
      </trkpt>
      <trkpt lat="44.97984" lon="3.66771">
        <ele>864.1</ele>
        <time>2019-12-07T08:23:33Z</time>
      </trkpt>
      <trkpt lat="44.98008" lon="3.66776">
        <ele>868.9</ele>
        <time>2019-12-07T08:23:50Z</time>
      </trkpt>
      <trkpt lat="44.98036" lon="3.66784">
        <ele>873.4</ele>
        <time>2019-12-07T08:24:07Z</time>
      </trkpt>
      <trkpt lat="44.9807" lon="3.66781">
        <ele>875.1</ele>
        <time>2019-12-07T08:24:26Z</time>
      </trkpt>
      <trkpt lat="44.98103" lon="3.66784">
        <ele>876.7</ele>
        <time>2019-12-07T08:24:43Z</time>
      </trkpt>
      <trkpt lat="44.98133" lon="3.66786">
        <ele>878.3</ele>
        <time>2019-12-07T08:24:58Z</time>
      </trkpt>
      <trkpt lat="44.98157" lon="3.66788">
        <ele>879.6</ele>
        <time>2019-12-07T08:25:11Z</time>
      </trkpt>
      <trkpt lat="44.98193" lon="3.66802">
        <ele>880.2</ele>
        <time>2019-12-07T08:25:28Z</time>
      </trkpt>
      <trkpt lat="44.98231" lon="3.66813">
        <ele>881.1</ele>
        <time>2019-12-07T08:25:45Z</time>
      </trkpt>
      <trkpt lat="44.98271" lon="3.66822">
        <ele>882.1</ele>
        <time>2019-12-07T08:26:02Z</time>
      </trkpt>
      <trkpt lat="44.9831" lon="3.66836">
        <ele>882</ele>
        <time>2019-12-07T08:26:18Z</time>
      </trkpt>
      <trkpt lat="44.98354" lon="3.66848">
        <ele>880.4</ele>
        <time>2019-12-07T08:26:37Z</time>
      </trkpt>
      <trkpt lat="44.98399" lon="3.66852">
        <ele>878.9</ele>
        <time>2019-12-07T08:26:53Z</time>
      </trkpt>
      <trkpt lat="44.98457" lon="3.66858">
        <ele>877.5</ele>
        <time>2019-12-07T08:27:05Z</time>
      </trkpt>
      <trkpt lat="44.98517" lon="3.66869">
        <ele>876.3</ele>
        <time>2019-12-07T08:27:15Z</time>
      </trkpt>
      <trkpt lat="44.98554" lon="3.66882">
        <ele>875.2</ele>
        <time>2019-12-07T08:27:21Z</time>
      </trkpt>
      <trkpt lat="44.98599" lon="3.6691">
        <ele>874.5</ele>
        <time>2019-12-07T08:27:29Z</time>
      </trkpt>
      <trkpt lat="44.98655" lon="3.6694">
        <ele>874.3</ele>
        <time>2019-12-07T08:27:39Z</time>
      </trkpt>
      <trkpt lat="44.98719" lon="3.66956">
        <ele>874.5</ele>
        <time>2019-12-07T08:27:49Z</time>
      </trkpt>
      <trkpt lat="44.98779" lon="3.66973">
        <ele>874.8</ele>
        <time>2019-12-07T08:27:57Z</time>
      </trkpt>
      <trkpt lat="44.98818" lon="3.6699">
        <ele>875.3</ele>
        <time>2019-12-07T08:28:02Z</time>
      </trkpt>
      <trkpt lat="44.98873" lon="3.67029">
        <ele>875.1</ele>
        <time>2019-12-07T08:28:10Z</time>
      </trkpt>
      <trkpt lat="44.98894" lon="3.67038">
        <ele>874.2</ele>
        <time>2019-12-07T08:28:13Z</time>
      </trkpt>
      <trkpt lat="44.98902" lon="3.67038">
        <ele>873.7</ele>
        <time>2019-12-07T08:28:14Z</time>
      </trkpt>
      <trkpt lat="44.98909" lon="3.67036">
        <ele>873.2</ele>
        <time>2019-12-07T08:28:15Z</time>
      </trkpt>
      <trkpt lat="44.98916" lon="3.67034">
        <ele>872.8</ele>
        <time>2019-12-07T08:28:16Z</time>
      </trkpt>
      <trkpt lat="44.98924" lon="3.67029">
        <ele>872.3</ele>
        <time>2019-12-07T08:28:17Z</time>
      </trkpt>
      <trkpt lat="44.98932" lon="3.67024">
        <ele>872</ele>
        <time>2019-12-07T08:28:18Z</time>
      </trkpt>
      <trkpt lat="44.98969" lon="3.67007">
        <ele>871.3</ele>
        <time>2019-12-07T08:28:23Z</time>
      </trkpt>
      <trkpt lat="44.98976" lon="3.6701">
        <ele>871.2</ele>
        <time>2019-12-07T08:28:24Z</time>
      </trkpt>
      <trkpt lat="44.98981" lon="3.67016">
        <ele>871.1</ele>
        <time>2019-12-07T08:28:25Z</time>
      </trkpt>
      <trkpt lat="44.98984" lon="3.67024">
        <ele>871</ele>
        <time>2019-12-07T08:28:26Z</time>
      </trkpt>
      <trkpt lat="44.98985" lon="3.67032">
        <ele>871</ele>
        <time>2019-12-07T08:28:27Z</time>
      </trkpt>
      <trkpt lat="44.98986" lon="3.6704">
        <ele>871</ele>
        <time>2019-12-07T08:28:28Z</time>
      </trkpt>
      <trkpt lat="44.98985" lon="3.67048">
        <ele>871.1</ele>
        <time>2019-12-07T08:28:29Z</time>
      </trkpt>
      <trkpt lat="44.98985" lon="3.67073">
        <ele>871.7</ele>
        <time>2019-12-07T08:28:33Z</time>
      </trkpt>
      <trkpt lat="44.98986" lon="3.67079">
        <ele>871.9</ele>
        <time>2019-12-07T08:28:34Z</time>
      </trkpt>
      <trkpt lat="44.98987" lon="3.67084">
        <ele>872.2</ele>
        <time>2019-12-07T08:28:35Z</time>
      </trkpt>
      <trkpt lat="44.98989" lon="3.67089">
        <ele>872.4</ele>
        <time>2019-12-07T08:28:36Z</time>
      </trkpt>
      <trkpt lat="44.98991" lon="3.67093">
        <ele>872.6</ele>
        <time>2019-12-07T08:28:37Z</time>
      </trkpt>
      <trkpt lat="44.98994" lon="3.67096">
        <ele>872.8</ele>
        <time>2019-12-07T08:28:38Z</time>
      </trkpt>
      <trkpt lat="44.98997" lon="3.67099">
        <ele>873.1</ele>
        <time>2019-12-07T08:28:39Z</time>
      </trkpt>
      <trkpt lat="44.99008" lon="3.67137">
        <ele>874.7</ele>
        <time>2019-12-07T08:28:48Z</time>
      </trkpt>
      <trkpt lat="44.98976" lon="3.6715">
        <ele>875.4</ele>
        <time>2019-12-07T08:29:00Z</time>
      </trkpt>
      <trkpt lat="44.98957" lon="3.6716">
        <ele>876.7</ele>
        <time>2019-12-07T08:29:08Z</time>
      </trkpt>
      <trkpt lat="44.9893" lon="3.6719">
        <ele>879.8</ele>
        <time>2019-12-07T08:29:22Z</time>
      </trkpt>
      <trkpt lat="44.98903" lon="3.67232">
        <ele>881.5</ele>
        <time>2019-12-07T08:29:39Z</time>
      </trkpt>
      <trkpt lat="44.98886" lon="3.6728">
        <ele>883.7</ele>
        <time>2019-12-07T08:29:55Z</time>
      </trkpt>
      <trkpt lat="44.98887" lon="3.67352">
        <ele>885.7</ele>
        <time>2019-12-07T08:30:17Z</time>
      </trkpt>
      <trkpt lat="44.98889" lon="3.67369">
        <ele>884.5</ele>
        <time>2019-12-07T08:30:23Z</time>
      </trkpt>
      <trkpt lat="44.98889" lon="3.67369">
        <ele>884.4</ele>
        <time>2019-12-07T08:30:29Z</time>
      </trkpt>
      <trkpt lat="44.98893" lon="3.67376">
        <ele>883.7</ele>
        <time>2019-12-07T08:31:58Z</time>
      </trkpt>
      <trkpt lat="44.98894" lon="3.6738">
        <ele>883.4</ele>
        <time>2019-12-07T08:31:59Z</time>
      </trkpt>
      <trkpt lat="44.98901" lon="3.67402">
        <ele>881.4</ele>
        <time>2019-12-07T08:32:04Z</time>
      </trkpt>
      <trkpt lat="44.98922" lon="3.67437">
        <ele>880.4</ele>
        <time>2019-12-07T08:32:10Z</time>
      </trkpt>
      <trkpt lat="44.9894" lon="3.67468">
        <ele>879.9</ele>
        <time>2019-12-07T08:32:14Z</time>
      </trkpt>
      <trkpt lat="44.98959" lon="3.67514">
        <ele>879.7</ele>
        <time>2019-12-07T08:32:19Z</time>
      </trkpt>
      <trkpt lat="44.98962" lon="3.67524">
        <ele>879.7</ele>
        <time>2019-12-07T08:32:20Z</time>
      </trkpt>
      <trkpt lat="44.98963" lon="3.67533">
        <ele>879.7</ele>
        <time>2019-12-07T08:32:21Z</time>
      </trkpt>
      <trkpt lat="44.98966" lon="3.67553">
        <ele>879.8</ele>
        <time>2019-12-07T08:32:23Z</time>
      </trkpt>
      <trkpt lat="44.98969" lon="3.67572">
        <ele>879.9</ele>
        <time>2019-12-07T08:32:25Z</time>
      </trkpt>
      <trkpt lat="44.98971" lon="3.67591">
        <ele>880</ele>
        <time>2019-12-07T08:32:27Z</time>
      </trkpt>
      <trkpt lat="44.98974" lon="3.6762">
        <ele>880.1</ele>
        <time>2019-12-07T08:32:30Z</time>
      </trkpt>
      <trkpt lat="44.98975" lon="3.67629">
        <ele>880.1</ele>
        <time>2019-12-07T08:32:31Z</time>
      </trkpt>
      <trkpt lat="44.98977" lon="3.67648">
        <ele>880.1</ele>
        <time>2019-12-07T08:32:33Z</time>
      </trkpt>
      <trkpt lat="44.98978" lon="3.67658">
        <ele>880</ele>
        <time>2019-12-07T08:32:34Z</time>
      </trkpt>
      <trkpt lat="44.98985" lon="3.67743">
        <ele>878.3</ele>
        <time>2019-12-07T08:32:43Z</time>
      </trkpt>
      <trkpt lat="44.98989" lon="3.6777">
        <ele>877.8</ele>
        <time>2019-12-07T08:32:47Z</time>
      </trkpt>
      <trkpt lat="44.98989" lon="3.67776">
        <ele>877.8</ele>
        <time>2019-12-07T08:32:48Z</time>
      </trkpt>
      <trkpt lat="44.98989" lon="3.67783">
        <ele>877.7</ele>
        <time>2019-12-07T08:32:49Z</time>
      </trkpt>
      <trkpt lat="44.9899" lon="3.67789">
        <ele>877.9</ele>
        <time>2019-12-07T08:32:50Z</time>
      </trkpt>
      <trkpt lat="44.98991" lon="3.67795">
        <ele>878.1</ele>
        <time>2019-12-07T08:32:51Z</time>
      </trkpt>
      <trkpt lat="44.98992" lon="3.67801">
        <ele>878.4</ele>
        <time>2019-12-07T08:32:52Z</time>
      </trkpt>
      <trkpt lat="44.99005" lon="3.67845">
        <ele>880.8</ele>
        <time>2019-12-07T08:32:59Z</time>
      </trkpt>
      <trkpt lat="44.99005" lon="3.67852">
        <ele>881.4</ele>
        <time>2019-12-07T08:33:00Z</time>
      </trkpt>
      <trkpt lat="44.99004" lon="3.6786">
        <ele>881</ele>
        <time>2019-12-07T08:33:01Z</time>
      </trkpt>
      <trkpt lat="44.99001" lon="3.67866">
        <ele>880.5</ele>
        <time>2019-12-07T08:33:02Z</time>
      </trkpt>
      <trkpt lat="44.98998" lon="3.67872">
        <ele>880.1</ele>
        <time>2019-12-07T08:33:03Z</time>
      </trkpt>
      <trkpt lat="44.98995" lon="3.67877">
        <ele>879.7</ele>
        <time>2019-12-07T08:33:04Z</time>
      </trkpt>
      <trkpt lat="44.98992" lon="3.67881">
        <ele>879.3</ele>
        <time>2019-12-07T08:33:05Z</time>
      </trkpt>
      <trkpt lat="44.9898" lon="3.67895">
        <ele>877.8</ele>
        <time>2019-12-07T08:33:09Z</time>
      </trkpt>
      <trkpt lat="44.9897" lon="3.679">
        <ele>876.5</ele>
        <time>2019-12-07T08:33:12Z</time>
      </trkpt>
      <trkpt lat="44.98964" lon="3.67905">
        <ele>875.7</ele>
        <time>2019-12-07T08:33:15Z</time>
      </trkpt>
      <trkpt lat="44.98959" lon="3.67911">
        <ele>875.7</ele>
        <time>2019-12-07T08:33:18Z</time>
      </trkpt>
      <trkpt lat="44.98953" lon="3.6792">
        <ele>874.6</ele>
        <time>2019-12-07T08:33:21Z</time>
      </trkpt>
      <trkpt lat="44.98948" lon="3.67932">
        <ele>873.3</ele>
        <time>2019-12-07T08:33:25Z</time>
      </trkpt>
      <trkpt lat="44.98944" lon="3.67942">
        <ele>872.3</ele>
        <time>2019-12-07T08:33:28Z</time>
      </trkpt>
      <trkpt lat="44.98942" lon="3.67956">
        <ele>871.6</ele>
        <time>2019-12-07T08:33:32Z</time>
      </trkpt>
      <trkpt lat="44.98949" lon="3.67974">
        <ele>873.4</ele>
        <time>2019-12-07T08:33:37Z</time>
      </trkpt>
      <trkpt lat="44.98975" lon="3.6801">
        <ele>878.6</ele>
        <time>2019-12-07T08:33:50Z</time>
      </trkpt>
      <trkpt lat="44.99019" lon="3.68065">
        <ele>884.3</ele>
        <time>2019-12-07T08:34:10Z</time>
      </trkpt>
      <trkpt lat="44.99042" lon="3.68099">
        <ele>888.8</ele>
        <time>2019-12-07T08:34:21Z</time>
      </trkpt>
      <trkpt lat="44.99075" lon="3.68158">
        <ele>886.1</ele>
        <time>2019-12-07T08:34:30Z</time>
      </trkpt>
      <trkpt lat="44.9908" lon="3.68164">
        <ele>886.2</ele>
        <time>2019-12-07T08:34:31Z</time>
      </trkpt>
      <trkpt lat="44.99086" lon="3.68169">
        <ele>886.3</ele>
        <time>2019-12-07T08:34:32Z</time>
      </trkpt>
      <trkpt lat="44.99093" lon="3.68173">
        <ele>886.5</ele>
        <time>2019-12-07T08:34:33Z</time>
      </trkpt>
      <trkpt lat="44.99099" lon="3.68177">
        <ele>886.7</ele>
        <time>2019-12-07T08:34:34Z</time>
      </trkpt>
      <trkpt lat="44.99106" lon="3.68181">
        <ele>886.8</ele>
        <time>2019-12-07T08:34:35Z</time>
      </trkpt>
      <trkpt lat="44.9913" lon="3.68198">
        <ele>887.4</ele>
        <time>2019-12-07T08:34:39Z</time>
      </trkpt>
      <trkpt lat="44.99158" lon="3.68218">
        <ele>888.1</ele>
        <time>2019-12-07T08:34:44Z</time>
      </trkpt>
      <trkpt lat="44.99179" lon="3.68235">
        <ele>888.5</ele>
        <time>2019-12-07T08:34:48Z</time>
      </trkpt>
      <trkpt lat="44.99195" lon="3.68249">
        <ele>888.6</ele>
        <time>2019-12-07T08:34:51Z</time>
      </trkpt>
      <trkpt lat="44.9922" lon="3.68266">
        <ele>888.8</ele>
        <time>2019-12-07T08:34:55Z</time>
      </trkpt>
      <trkpt lat="44.99231" lon="3.68271">
        <ele>888.8</ele>
        <time>2019-12-07T08:34:57Z</time>
      </trkpt>
      <trkpt lat="44.99236" lon="3.68271">
        <ele>888.8</ele>
        <time>2019-12-07T08:34:58Z</time>
      </trkpt>
      <trkpt lat="44.99241" lon="3.6827">
        <ele>888.8</ele>
        <time>2019-12-07T08:34:59Z</time>
      </trkpt>
      <trkpt lat="44.99247" lon="3.68269">
        <ele>888.8</ele>
        <time>2019-12-07T08:35:00Z</time>
      </trkpt>
      <trkpt lat="44.99253" lon="3.68269">
        <ele>888.8</ele>
        <time>2019-12-07T08:35:01Z</time>
      </trkpt>
      <trkpt lat="44.99259" lon="3.68271">
        <ele>889</ele>
        <time>2019-12-07T08:35:02Z</time>
      </trkpt>
      <trkpt lat="44.99263" lon="3.68275">
        <ele>889.3</ele>
        <time>2019-12-07T08:35:03Z</time>
      </trkpt>
      <trkpt lat="44.99268" lon="3.6828">
        <ele>889.7</ele>
        <time>2019-12-07T08:35:04Z</time>
      </trkpt>
      <trkpt lat="44.99271" lon="3.68285">
        <ele>890.2</ele>
        <time>2019-12-07T08:35:05Z</time>
      </trkpt>
      <trkpt lat="44.99274" lon="3.68288">
        <ele>890.5</ele>
        <time>2019-12-07T08:35:06Z</time>
      </trkpt>
      <trkpt lat="44.9928" lon="3.683">
        <ele>892.7</ele>
        <time>2019-12-07T08:35:10Z</time>
      </trkpt>
      <trkpt lat="44.9928" lon="3.68301">
        <ele>892.8</ele>
        <time>2019-12-07T08:35:14Z</time>
      </trkpt>
      <trkpt lat="44.99281" lon="3.68301">
        <ele>893</ele>
        <time>2019-12-07T08:35:15Z</time>
      </trkpt>
      <trkpt lat="44.99283" lon="3.68304">
        <ele>893.6</ele>
        <time>2019-12-07T08:35:19Z</time>
      </trkpt>
      <trkpt lat="44.99284" lon="3.68306">
        <ele>894</ele>
        <time>2019-12-07T08:35:25Z</time>
      </trkpt>
      <trkpt lat="44.99293" lon="3.68325">
        <ele>897.2</ele>
        <time>2019-12-07T08:35:50Z</time>
      </trkpt>
      <trkpt lat="44.99294" lon="3.68327">
        <ele>897.4</ele>
        <time>2019-12-07T08:35:51Z</time>
      </trkpt>
      <trkpt lat="44.99294" lon="3.68328">
        <ele>897.6</ele>
        <time>2019-12-07T08:35:52Z</time>
      </trkpt>
      <trkpt lat="44.99298" lon="3.68339">
        <ele>898.8</ele>
        <time>2019-12-07T08:35:57Z</time>
      </trkpt>
      <trkpt lat="44.99299" lon="3.68364">
        <ele>899.7</ele>
        <time>2019-12-07T08:36:08Z</time>
      </trkpt>
      <trkpt lat="44.99294" lon="3.68369">
        <ele>899.7</ele>
        <time>2019-12-07T08:36:16Z</time>
      </trkpt>
      <trkpt lat="44.99292" lon="3.68368">
        <ele>899.7</ele>
        <time>2019-12-07T08:36:21Z</time>
      </trkpt>
      <trkpt lat="44.9925" lon="3.68359">
        <ele>907</ele>
        <time>2019-12-07T08:37:20Z</time>
      </trkpt>
      <trkpt lat="44.99249" lon="3.68359">
        <ele>907.3</ele>
        <time>2019-12-07T08:37:21Z</time>
      </trkpt>
      <trkpt lat="44.99248" lon="3.68359">
        <ele>907.4</ele>
        <time>2019-12-07T08:37:22Z</time>
      </trkpt>
      <trkpt lat="44.99247" lon="3.68359">
        <ele>907.8</ele>
        <time>2019-12-07T08:37:24Z</time>
      </trkpt>
      <trkpt lat="44.99246" lon="3.68359">
        <ele>908</ele>
        <time>2019-12-07T08:37:25Z</time>
      </trkpt>
      <trkpt lat="44.99235" lon="3.68365">
        <ele>911.1</ele>
        <time>2019-12-07T08:37:44Z</time>
      </trkpt>
      <trkpt lat="44.99235" lon="3.68366">
        <ele>911.3</ele>
        <time>2019-12-07T08:37:45Z</time>
      </trkpt>
      <trkpt lat="44.99233" lon="3.68402">
        <ele>919.7</ele>
        <time>2019-12-07T08:39:03Z</time>
      </trkpt>
      <trkpt lat="44.99231" lon="3.68401">
        <ele>920.3</ele>
        <time>2019-12-07T08:39:04Z</time>
      </trkpt>
      <trkpt lat="44.9923" lon="3.68401">
        <ele>920.8</ele>
        <time>2019-12-07T08:39:05Z</time>
      </trkpt>
      <trkpt lat="44.99229" lon="3.68401">
        <ele>921.1</ele>
        <time>2019-12-07T08:39:06Z</time>
      </trkpt>
      <trkpt lat="44.99228" lon="3.68401">
        <ele>921.3</ele>
        <time>2019-12-07T08:39:07Z</time>
      </trkpt>
      <trkpt lat="44.99227" lon="3.68411">
        <ele>923.3</ele>
        <time>2019-12-07T08:39:17Z</time>
      </trkpt>
      <trkpt lat="44.99226" lon="3.68413">
        <ele>923.6</ele>
        <time>2019-12-07T08:39:19Z</time>
      </trkpt>
      <trkpt lat="44.99233" lon="3.6843">
        <ele>927.2</ele>
        <time>2019-12-07T08:39:39Z</time>
      </trkpt>
      <trkpt lat="44.99236" lon="3.68436">
        <ele>928.4</ele>
        <time>2019-12-07T08:39:48Z</time>
      </trkpt>
      <trkpt lat="44.99236" lon="3.68437">
        <ele>928.5</ele>
        <time>2019-12-07T08:39:49Z</time>
      </trkpt>
      <trkpt lat="44.99236" lon="3.68437">
        <ele>928.6</ele>
        <time>2019-12-07T08:39:50Z</time>
      </trkpt>
      <trkpt lat="44.99234" lon="3.68438">
        <ele>929</ele>
        <time>2019-12-07T08:39:53Z</time>
      </trkpt>
      <trkpt lat="44.99234" lon="3.68439">
        <ele>929.2</ele>
        <time>2019-12-07T08:39:55Z</time>
      </trkpt>
      <trkpt lat="44.99233" lon="3.68439">
        <ele>929.4</ele>
        <time>2019-12-07T08:39:57Z</time>
      </trkpt>
      <trkpt lat="44.9923" lon="3.68443">
        <ele>930.3</ele>
        <time>2019-12-07T08:40:06Z</time>
      </trkpt>
      <trkpt lat="44.99208" lon="3.68531">
        <ele>937.5</ele>
        <time>2019-12-07T08:41:36Z</time>
      </trkpt>
      <trkpt lat="44.99208" lon="3.68531">
        <ele>937.6</ele>
        <time>2019-12-07T08:41:37Z</time>
      </trkpt>
      <trkpt lat="44.99208" lon="3.68532">
        <ele>937.6</ele>
        <time>2019-12-07T08:41:38Z</time>
      </trkpt>
      <trkpt lat="44.99205" lon="3.68538">
        <ele>938.1</ele>
        <time>2019-12-07T08:41:44Z</time>
      </trkpt>
      <trkpt lat="44.99205" lon="3.68539">
        <ele>938.2</ele>
        <time>2019-12-07T08:41:45Z</time>
      </trkpt>
      <trkpt lat="44.99204" lon="3.68544">
        <ele>938.6</ele>
        <time>2019-12-07T08:41:50Z</time>
      </trkpt>
      <trkpt lat="44.99203" lon="3.68544">
        <ele>938.6</ele>
        <time>2019-12-07T08:41:51Z</time>
      </trkpt>
      <trkpt lat="44.99203" lon="3.68545">
        <ele>938.7</ele>
        <time>2019-12-07T08:41:52Z</time>
      </trkpt>
      <trkpt lat="44.99201" lon="3.68549">
        <ele>939.1</ele>
        <time>2019-12-07T08:41:57Z</time>
      </trkpt>
      <trkpt lat="44.99196" lon="3.68559">
        <ele>940.1</ele>
        <time>2019-12-07T08:42:12Z</time>
      </trkpt>
      <trkpt lat="44.99195" lon="3.68562">
        <ele>940.4</ele>
        <time>2019-12-07T08:42:16Z</time>
      </trkpt>
      <trkpt lat="44.99194" lon="3.68563">
        <ele>940.5</ele>
        <time>2019-12-07T08:42:19Z</time>
      </trkpt>
      <trkpt lat="44.99157" lon="3.68585">
        <ele>945.3</ele>
        <time>2019-12-07T08:43:17Z</time>
      </trkpt>
      <trkpt lat="44.99156" lon="3.68585">
        <ele>945.3</ele>
        <time>2019-12-07T08:43:18Z</time>
      </trkpt>
      <trkpt lat="44.99156" lon="3.68585">
        <ele>945.3</ele>
        <time>2019-12-07T08:43:19Z</time>
      </trkpt>
      <trkpt lat="44.99155" lon="3.68586">
        <ele>945.4</ele>
        <time>2019-12-07T08:43:21Z</time>
      </trkpt>
      <trkpt lat="44.99151" lon="3.68587">
        <ele>945.5</ele>
        <time>2019-12-07T08:43:25Z</time>
      </trkpt>
      <trkpt lat="44.99151" lon="3.68587">
        <ele>945.6</ele>
        <time>2019-12-07T08:43:26Z</time>
      </trkpt>
      <trkpt lat="44.99149" lon="3.68587">
        <ele>945.6</ele>
        <time>2019-12-07T08:43:28Z</time>
      </trkpt>
      <trkpt lat="44.99149" lon="3.68587">
        <ele>945.6</ele>
        <time>2019-12-07T08:43:32Z</time>
      </trkpt>
      <trkpt lat="44.99139" lon="3.68585">
        <ele>946</ele>
        <time>2019-12-07T08:44:42Z</time>
      </trkpt>
      <trkpt lat="44.99138" lon="3.68584">
        <ele>946</ele>
        <time>2019-12-07T08:44:43Z</time>
      </trkpt>
      <trkpt lat="44.99137" lon="3.68583">
        <ele>946.1</ele>
        <time>2019-12-07T08:44:44Z</time>
      </trkpt>
      <trkpt lat="44.99121" lon="3.6857">
        <ele>946.6</ele>
        <time>2019-12-07T08:44:54Z</time>
      </trkpt>
      <trkpt lat="44.99111" lon="3.68564">
        <ele>947.1</ele>
        <time>2019-12-07T08:45:00Z</time>
      </trkpt>
      <trkpt lat="44.99103" lon="3.68558">
        <ele>947.6</ele>
        <time>2019-12-07T08:45:05Z</time>
      </trkpt>
      <trkpt lat="44.99091" lon="3.6855">
        <ele>948.2</ele>
        <time>2019-12-07T08:45:12Z</time>
      </trkpt>
      <trkpt lat="44.99074" lon="3.68535">
        <ele>948.7</ele>
        <time>2019-12-07T08:45:21Z</time>
      </trkpt>
      <trkpt lat="44.99066" lon="3.68527">
        <ele>949</ele>
        <time>2019-12-07T08:45:26Z</time>
      </trkpt>
      <trkpt lat="44.99046" lon="3.68508">
        <ele>950.1</ele>
        <time>2019-12-07T08:45:38Z</time>
      </trkpt>
      <trkpt lat="44.99031" lon="3.68488">
        <ele>951.1</ele>
        <time>2019-12-07T08:45:49Z</time>
      </trkpt>
      <trkpt lat="44.99016" lon="3.68488">
        <ele>952.1</ele>
        <time>2019-12-07T08:45:59Z</time>
      </trkpt>
      <trkpt lat="44.98999" lon="3.685">
        <ele>954.4</ele>
        <time>2019-12-07T08:46:13Z</time>
      </trkpt>
      <trkpt lat="44.98985" lon="3.68509">
        <ele>957</ele>
        <time>2019-12-07T08:46:24Z</time>
      </trkpt>
      <trkpt lat="44.98982" lon="3.68511">
        <ele>957.5</ele>
        <time>2019-12-07T08:46:27Z</time>
      </trkpt>
      <trkpt lat="44.98968" lon="3.6852">
        <ele>960.1</ele>
        <time>2019-12-07T08:46:40Z</time>
      </trkpt>
      <trkpt lat="44.98954" lon="3.68531">
        <ele>963</ele>
        <time>2019-12-07T08:46:55Z</time>
      </trkpt>
      <trkpt lat="44.9895" lon="3.68531">
        <ele>963.5</ele>
        <time>2019-12-07T08:46:59Z</time>
      </trkpt>
      <trkpt lat="44.98949" lon="3.68531">
        <ele>963.6</ele>
        <time>2019-12-07T08:47:00Z</time>
      </trkpt>
      <trkpt lat="44.98948" lon="3.68531">
        <ele>963.8</ele>
        <time>2019-12-07T08:47:01Z</time>
      </trkpt>
      <trkpt lat="44.98947" lon="3.6853">
        <ele>963.9</ele>
        <time>2019-12-07T08:47:02Z</time>
      </trkpt>
      <trkpt lat="44.98946" lon="3.6853">
        <ele>964.1</ele>
        <time>2019-12-07T08:47:03Z</time>
      </trkpt>
      <trkpt lat="44.98942" lon="3.68527">
        <ele>964.8</ele>
        <time>2019-12-07T08:47:08Z</time>
      </trkpt>
      <trkpt lat="44.98941" lon="3.68526">
        <ele>964.9</ele>
        <time>2019-12-07T08:47:09Z</time>
      </trkpt>
      <trkpt lat="44.9894" lon="3.68526">
        <ele>965</ele>
        <time>2019-12-07T08:47:10Z</time>
      </trkpt>
      <trkpt lat="44.98934" lon="3.68523">
        <ele>965.8</ele>
        <time>2019-12-07T08:47:17Z</time>
      </trkpt>
      <trkpt lat="44.98933" lon="3.68523">
        <ele>966</ele>
        <time>2019-12-07T08:47:18Z</time>
      </trkpt>
      <trkpt lat="44.98932" lon="3.68523">
        <ele>966.1</ele>
        <time>2019-12-07T08:47:19Z</time>
      </trkpt>
      <trkpt lat="44.98931" lon="3.68523">
        <ele>966.2</ele>
        <time>2019-12-07T08:47:20Z</time>
      </trkpt>
      <trkpt lat="44.9893" lon="3.68523">
        <ele>966.3</ele>
        <time>2019-12-07T08:47:21Z</time>
      </trkpt>
      <trkpt lat="44.98911" lon="3.68531">
        <ele>968.8</ele>
        <time>2019-12-07T08:47:38Z</time>
      </trkpt>
      <trkpt lat="44.98899" lon="3.68544">
        <ele>971.6</ele>
        <time>2019-12-07T08:47:52Z</time>
      </trkpt>
      <trkpt lat="44.98896" lon="3.68547">
        <ele>972.1</ele>
        <time>2019-12-07T08:47:55Z</time>
      </trkpt>
      <trkpt lat="44.98896" lon="3.68548">
        <ele>972.3</ele>
        <time>2019-12-07T08:47:56Z</time>
      </trkpt>
      <trkpt lat="44.98886" lon="3.6856">
        <ele>975</ele>
        <time>2019-12-07T08:48:09Z</time>
      </trkpt>
      <trkpt lat="44.98885" lon="3.68561">
        <ele>975.3</ele>
        <time>2019-12-07T08:48:10Z</time>
      </trkpt>
      <trkpt lat="44.98884" lon="3.68561">
        <ele>975.5</ele>
        <time>2019-12-07T08:48:11Z</time>
      </trkpt>
      <trkpt lat="44.98883" lon="3.68562">
        <ele>975.7</ele>
        <time>2019-12-07T08:48:12Z</time>
      </trkpt>
      <trkpt lat="44.98883" lon="3.68563">
        <ele>975.9</ele>
        <time>2019-12-07T08:48:13Z</time>
      </trkpt>
      <trkpt lat="44.98878" lon="3.68567">
        <ele>976.9</ele>
        <time>2019-12-07T08:48:18Z</time>
      </trkpt>
      <trkpt lat="44.98878" lon="3.68568">
        <ele>977.1</ele>
        <time>2019-12-07T08:48:19Z</time>
      </trkpt>
      <trkpt lat="44.98877" lon="3.68569">
        <ele>977.3</ele>
        <time>2019-12-07T08:48:20Z</time>
      </trkpt>
      <trkpt lat="44.98876" lon="3.6857">
        <ele>977.5</ele>
        <time>2019-12-07T08:48:21Z</time>
      </trkpt>
      <trkpt lat="44.98875" lon="3.68571">
        <ele>977.7</ele>
        <time>2019-12-07T08:48:22Z</time>
      </trkpt>
      <trkpt lat="44.98874" lon="3.68572">
        <ele>978</ele>
        <time>2019-12-07T08:48:23Z</time>
      </trkpt>
      <trkpt lat="44.98863" lon="3.68583">
        <ele>981.1</ele>
        <time>2019-12-07T08:48:36Z</time>
      </trkpt>
      <trkpt lat="44.9886" lon="3.68585">
        <ele>981.7</ele>
        <time>2019-12-07T08:48:39Z</time>
      </trkpt>
      <trkpt lat="44.9886" lon="3.68585">
        <ele>981.9</ele>
        <time>2019-12-07T08:48:40Z</time>
      </trkpt>
      <trkpt lat="44.98844" lon="3.68598">
        <ele>985.8</ele>
        <time>2019-12-07T08:48:57Z</time>
      </trkpt>
      <trkpt lat="44.98829" lon="3.68609">
        <ele>989.2</ele>
        <time>2019-12-07T08:49:13Z</time>
      </trkpt>
      <trkpt lat="44.98811" lon="3.68624">
        <ele>992.5</ele>
        <time>2019-12-07T08:49:30Z</time>
      </trkpt>
      <trkpt lat="44.98795" lon="3.68648">
        <ele>996.1</ele>
        <time>2019-12-07T08:49:47Z</time>
      </trkpt>
      <trkpt lat="44.9878" lon="3.6868">
        <ele>998.9</ele>
        <time>2019-12-07T08:50:07Z</time>
      </trkpt>
      <trkpt lat="44.98759" lon="3.68706">
        <ele>1001.5</ele>
        <time>2019-12-07T08:50:25Z</time>
      </trkpt>
      <trkpt lat="44.9874" lon="3.68733">
        <ele>1005.3</ele>
        <time>2019-12-07T08:50:43Z</time>
      </trkpt>
      <trkpt lat="44.98731" lon="3.68762">
        <ele>1007.9</ele>
        <time>2019-12-07T08:50:57Z</time>
      </trkpt>
      <trkpt lat="44.98734" lon="3.68836">
        <ele>1013.1</ele>
        <time>2019-12-07T08:51:25Z</time>
      </trkpt>
      <trkpt lat="44.98734" lon="3.68873">
        <ele>1015.3</ele>
        <time>2019-12-07T08:51:38Z</time>
      </trkpt>
      <trkpt lat="44.98732" lon="3.68935">
        <ele>1018.5</ele>
        <time>2019-12-07T08:52:00Z</time>
      </trkpt>
      <trkpt lat="44.98733" lon="3.69005">
        <ele>1021.8</ele>
        <time>2019-12-07T08:52:23Z</time>
      </trkpt>
      <trkpt lat="44.9873" lon="3.69085">
        <ele>1025.1</ele>
        <time>2019-12-07T08:52:44Z</time>
      </trkpt>
      <trkpt lat="44.98728" lon="3.69134">
        <ele>1026</ele>
        <time>2019-12-07T08:52:57Z</time>
      </trkpt>
      <trkpt lat="44.98721" lon="3.69186">
        <ele>1025.7</ele>
        <time>2019-12-07T08:53:08Z</time>
      </trkpt>
      <trkpt lat="44.98725" lon="3.69255">
        <ele>1027</ele>
        <time>2019-12-07T08:53:24Z</time>
      </trkpt>
      <trkpt lat="44.98737" lon="3.69332">
        <ele>1028.6</ele>
        <time>2019-12-07T08:53:44Z</time>
      </trkpt>
      <trkpt lat="44.98752" lon="3.69408">
        <ele>1031.6</ele>
        <time>2019-12-07T08:54:06Z</time>
      </trkpt>
      <trkpt lat="44.98767" lon="3.6946">
        <ele>1035.3</ele>
        <time>2019-12-07T08:54:23Z</time>
      </trkpt>
      <trkpt lat="44.98777" lon="3.69491">
        <ele>1036.9</ele>
        <time>2019-12-07T08:54:32Z</time>
      </trkpt>
      <trkpt lat="44.98786" lon="3.69545">
        <ele>1038.6</ele>
        <time>2019-12-07T08:54:47Z</time>
      </trkpt>
      <trkpt lat="44.98785" lon="3.69608">
        <ele>1041.2</ele>
        <time>2019-12-07T08:55:04Z</time>
      </trkpt>
      <trkpt lat="44.98783" lon="3.69667">
        <ele>1043.6</ele>
        <time>2019-12-07T08:55:19Z</time>
      </trkpt>
      <trkpt lat="44.98781" lon="3.6972">
        <ele>1046.4</ele>
        <time>2019-12-07T08:55:34Z</time>
      </trkpt>
      <trkpt lat="44.98779" lon="3.6977">
        <ele>1050.2</ele>
        <time>2019-12-07T08:55:49Z</time>
      </trkpt>
      <trkpt lat="44.9878" lon="3.69807">
        <ele>1054.7</ele>
        <time>2019-12-07T08:56:02Z</time>
      </trkpt>
      <trkpt lat="44.9878" lon="3.69809">
        <ele>1054.8</ele>
        <time>2019-12-07T08:56:03Z</time>
      </trkpt>
      <trkpt lat="44.9878" lon="3.6981">
        <ele>1054.9</ele>
        <time>2019-12-07T08:56:04Z</time>
      </trkpt>
      <trkpt lat="44.98781" lon="3.69811">
        <ele>1054.9</ele>
        <time>2019-12-07T08:56:05Z</time>
      </trkpt>
      <trkpt lat="44.98781" lon="3.69812">
        <ele>1055</ele>
        <time>2019-12-07T08:56:06Z</time>
      </trkpt>
      <trkpt lat="44.98782" lon="3.69813">
        <ele>1055.1</ele>
        <time>2019-12-07T08:56:07Z</time>
      </trkpt>
      <trkpt lat="44.98783" lon="3.69814">
        <ele>1055.2</ele>
        <time>2019-12-07T08:56:08Z</time>
      </trkpt>
      <trkpt lat="44.98784" lon="3.69815">
        <ele>1055.2</ele>
        <time>2019-12-07T08:56:09Z</time>
      </trkpt>
      <trkpt lat="44.98787" lon="3.69817">
        <ele>1055.5</ele>
        <time>2019-12-07T08:56:17Z</time>
      </trkpt>
      <trkpt lat="44.98793" lon="3.69805">
        <ele>1055.9</ele>
        <time>2019-12-07T08:59:07Z</time>
      </trkpt>
      <trkpt lat="44.98793" lon="3.69804">
        <ele>1056</ele>
        <time>2019-12-07T08:59:08Z</time>
      </trkpt>
      <trkpt lat="44.98793" lon="3.69805">
        <ele>1056</ele>
        <time>2019-12-07T08:59:13Z</time>
      </trkpt>
      <trkpt lat="44.98794" lon="3.6982">
        <ele>1057.3</ele>
        <time>2019-12-07T09:01:46Z</time>
      </trkpt>
      <trkpt lat="44.98795" lon="3.69822">
        <ele>1057.4</ele>
        <time>2019-12-07T09:01:47Z</time>
      </trkpt>
      <trkpt lat="44.98796" lon="3.69824">
        <ele>1057.6</ele>
        <time>2019-12-07T09:01:48Z</time>
      </trkpt>
      <trkpt lat="44.98796" lon="3.69826">
        <ele>1057.8</ele>
        <time>2019-12-07T09:01:49Z</time>
      </trkpt>
      <trkpt lat="44.98798" lon="3.69828">
        <ele>1058</ele>
        <time>2019-12-07T09:01:50Z</time>
      </trkpt>
      <trkpt lat="44.98799" lon="3.69829">
        <ele>1058.1</ele>
        <time>2019-12-07T09:01:51Z</time>
      </trkpt>
      <trkpt lat="44.98801" lon="3.69831">
        <ele>1058.3</ele>
        <time>2019-12-07T09:01:52Z</time>
      </trkpt>
      <trkpt lat="44.98812" lon="3.69839">
        <ele>1059.2</ele>
        <time>2019-12-07T09:01:58Z</time>
      </trkpt>
      <trkpt lat="44.98827" lon="3.69851">
        <ele>1060.2</ele>
        <time>2019-12-07T09:02:06Z</time>
      </trkpt>
      <trkpt lat="44.98838" lon="3.69861">
        <ele>1061.2</ele>
        <time>2019-12-07T09:02:12Z</time>
      </trkpt>
      <trkpt lat="44.98846" lon="3.69869">
        <ele>1062.2</ele>
        <time>2019-12-07T09:02:17Z</time>
      </trkpt>
      <trkpt lat="44.98851" lon="3.69874">
        <ele>1062.8</ele>
        <time>2019-12-07T09:02:20Z</time>
      </trkpt>
      <trkpt lat="44.98859" lon="3.69883">
        <ele>1064</ele>
        <time>2019-12-07T09:02:25Z</time>
      </trkpt>
      <trkpt lat="44.98865" lon="3.6989">
        <ele>1064.8</ele>
        <time>2019-12-07T09:02:29Z</time>
      </trkpt>
      <trkpt lat="44.98875" lon="3.69901">
        <ele>1066.6</ele>
        <time>2019-12-07T09:02:36Z</time>
      </trkpt>
      <trkpt lat="44.98877" lon="3.69903">
        <ele>1066.9</ele>
        <time>2019-12-07T09:02:37Z</time>
      </trkpt>
      <trkpt lat="44.9888" lon="3.69906">
        <ele>1067.3</ele>
        <time>2019-12-07T09:02:39Z</time>
      </trkpt>
      <trkpt lat="44.98887" lon="3.69918">
        <ele>1068.3</ele>
        <time>2019-12-07T09:02:45Z</time>
      </trkpt>
      <trkpt lat="44.98905" lon="3.69953">
        <ele>1070.3</ele>
        <time>2019-12-07T09:03:01Z</time>
      </trkpt>
      <trkpt lat="44.98928" lon="3.69987">
        <ele>1072.5</ele>
        <time>2019-12-07T09:03:18Z</time>
      </trkpt>
      <trkpt lat="44.98954" lon="3.70042">
        <ele>1075.8</ele>
        <time>2019-12-07T09:03:41Z</time>
      </trkpt>
      <trkpt lat="44.98956" lon="3.70047">
        <ele>1076</ele>
        <time>2019-12-07T09:03:43Z</time>
      </trkpt>
      <trkpt lat="44.98958" lon="3.70052">
        <ele>1076.3</ele>
        <time>2019-12-07T09:03:45Z</time>
      </trkpt>
      <trkpt lat="44.98961" lon="3.70059">
        <ele>1076.8</ele>
        <time>2019-12-07T09:03:48Z</time>
      </trkpt>
      <trkpt lat="44.98981" lon="3.70098">
        <ele>1079</ele>
        <time>2019-12-07T09:04:05Z</time>
      </trkpt>
      <trkpt lat="44.98988" lon="3.70114">
        <ele>1079.9</ele>
        <time>2019-12-07T09:04:12Z</time>
      </trkpt>
      <trkpt lat="44.9901" lon="3.70163">
        <ele>1083.3</ele>
        <time>2019-12-07T09:04:33Z</time>
      </trkpt>
      <trkpt lat="44.99031" lon="3.70209">
        <ele>1087.2</ele>
        <time>2019-12-07T09:04:52Z</time>
      </trkpt>
      <trkpt lat="44.9905" lon="3.70245">
        <ele>1090.6</ele>
        <time>2019-12-07T09:05:09Z</time>
      </trkpt>
      <trkpt lat="44.99054" lon="3.70279">
        <ele>1092.9</ele>
        <time>2019-12-07T09:05:23Z</time>
      </trkpt>
      <trkpt lat="44.99043" lon="3.70324">
        <ele>1096</ele>
        <time>2019-12-07T09:05:43Z</time>
      </trkpt>
      <trkpt lat="44.99041" lon="3.70335">
        <ele>1096.8</ele>
        <time>2019-12-07T09:05:47Z</time>
      </trkpt>
      <trkpt lat="44.99048" lon="3.7038">
        <ele>1099.9</ele>
        <time>2019-12-07T09:06:06Z</time>
      </trkpt>
      <trkpt lat="44.99052" lon="3.70391">
        <ele>1100.8</ele>
        <time>2019-12-07T09:06:11Z</time>
      </trkpt>
      <trkpt lat="44.99063" lon="3.70424">
        <ele>1104</ele>
        <time>2019-12-07T09:06:27Z</time>
      </trkpt>
      <trkpt lat="44.99067" lon="3.70439">
        <ele>1105</ele>
        <time>2019-12-07T09:06:34Z</time>
      </trkpt>
      <trkpt lat="44.9907" lon="3.70451">
        <ele>1105.6</ele>
        <time>2019-12-07T09:06:39Z</time>
      </trkpt>
      <trkpt lat="44.99074" lon="3.70481">
        <ele>1107.8</ele>
        <time>2019-12-07T09:06:52Z</time>
      </trkpt>
      <trkpt lat="44.99077" lon="3.7051">
        <ele>1110.7</ele>
        <time>2019-12-07T09:07:06Z</time>
      </trkpt>
      <trkpt lat="44.99077" lon="3.7052">
        <ele>1111.8</ele>
        <time>2019-12-07T09:07:11Z</time>
      </trkpt>
      <trkpt lat="44.9908" lon="3.70551">
        <ele>1115</ele>
        <time>2019-12-07T09:07:28Z</time>
      </trkpt>
      <trkpt lat="44.99084" lon="3.7058">
        <ele>1117.8</ele>
        <time>2019-12-07T09:07:44Z</time>
      </trkpt>
      <trkpt lat="44.99091" lon="3.70612">
        <ele>1121.6</ele>
        <time>2019-12-07T09:08:00Z</time>
      </trkpt>
      <trkpt lat="44.99098" lon="3.70636">
        <ele>1124.7</ele>
        <time>2019-12-07T09:08:13Z</time>
      </trkpt>
      <trkpt lat="44.99104" lon="3.7065">
        <ele>1126.1</ele>
        <time>2019-12-07T09:08:21Z</time>
      </trkpt>
      <trkpt lat="44.99107" lon="3.70656">
        <ele>1126.1</ele>
        <time>2019-12-07T09:08:25Z</time>
      </trkpt>
      <trkpt lat="44.99133" lon="3.70692">
        <ele>1128</ele>
        <time>2019-12-07T09:08:48Z</time>
      </trkpt>
      <trkpt lat="44.99141" lon="3.70698">
        <ele>1129</ele>
        <time>2019-12-07T09:08:53Z</time>
      </trkpt>
      <trkpt lat="44.99148" lon="3.70705">
        <ele>1129.9</ele>
        <time>2019-12-07T09:08:58Z</time>
      </trkpt>
      <trkpt lat="44.99152" lon="3.70708">
        <ele>1130.5</ele>
        <time>2019-12-07T09:09:01Z</time>
      </trkpt>
      <trkpt lat="44.99155" lon="3.70711">
        <ele>1131</ele>
        <time>2019-12-07T09:09:03Z</time>
      </trkpt>
      <trkpt lat="44.99167" lon="3.7072">
        <ele>1133.4</ele>
        <time>2019-12-07T09:09:11Z</time>
      </trkpt>
      <trkpt lat="44.9918" lon="3.70732">
        <ele>1135.8</ele>
        <time>2019-12-07T09:09:20Z</time>
      </trkpt>
      <trkpt lat="44.99187" lon="3.70739">
        <ele>1137.3</ele>
        <time>2019-12-07T09:09:25Z</time>
      </trkpt>
      <trkpt lat="44.99212" lon="3.70762">
        <ele>1140</ele>
        <time>2019-12-07T09:09:42Z</time>
      </trkpt>
      <trkpt lat="44.99219" lon="3.7077">
        <ele>1140.8</ele>
        <time>2019-12-07T09:09:47Z</time>
      </trkpt>
      <trkpt lat="44.99224" lon="3.70776">
        <ele>1141.5</ele>
        <time>2019-12-07T09:09:51Z</time>
      </trkpt>
      <trkpt lat="44.99238" lon="3.70795">
        <ele>1142.7</ele>
        <time>2019-12-07T09:10:02Z</time>
      </trkpt>
      <trkpt lat="44.9925" lon="3.70812">
        <ele>1143.9</ele>
        <time>2019-12-07T09:10:12Z</time>
      </trkpt>
      <trkpt lat="44.99252" lon="3.70816">
        <ele>1144.1</ele>
        <time>2019-12-07T09:10:14Z</time>
      </trkpt>
      <trkpt lat="44.99259" lon="3.70825">
        <ele>1144.7</ele>
        <time>2019-12-07T09:10:19Z</time>
      </trkpt>
      <trkpt lat="44.99296" lon="3.70874">
        <ele>1145.6</ele>
        <time>2019-12-07T09:10:42Z</time>
      </trkpt>
      <trkpt lat="44.99306" lon="3.70889">
        <ele>1145.6</ele>
        <time>2019-12-07T09:10:48Z</time>
      </trkpt>
      <trkpt lat="44.9931" lon="3.70898">
        <ele>1145.6</ele>
        <time>2019-12-07T09:10:51Z</time>
      </trkpt>
      <trkpt lat="44.99328" lon="3.70937">
        <ele>1147</ele>
        <time>2019-12-07T09:11:05Z</time>
      </trkpt>
      <trkpt lat="44.99333" lon="3.70948">
        <ele>1147.7</ele>
        <time>2019-12-07T09:11:09Z</time>
      </trkpt>
      <trkpt lat="44.99356" lon="3.7099">
        <ele>1150.1</ele>
        <time>2019-12-07T09:11:24Z</time>
      </trkpt>
      <trkpt lat="44.99368" lon="3.71011">
        <ele>1151.3</ele>
        <time>2019-12-07T09:11:32Z</time>
      </trkpt>
      <trkpt lat="44.99372" lon="3.71019">
        <ele>1151.7</ele>
        <time>2019-12-07T09:11:35Z</time>
      </trkpt>
      <trkpt lat="44.99386" lon="3.7104">
        <ele>1153.5</ele>
        <time>2019-12-07T09:11:44Z</time>
      </trkpt>
      <trkpt lat="44.99391" lon="3.71047">
        <ele>1154.4</ele>
        <time>2019-12-07T09:11:47Z</time>
      </trkpt>
      <trkpt lat="44.99407" lon="3.71073">
        <ele>1157</ele>
        <time>2019-12-07T09:11:59Z</time>
      </trkpt>
      <trkpt lat="44.99411" lon="3.71079">
        <ele>1157.5</ele>
        <time>2019-12-07T09:12:02Z</time>
      </trkpt>
      <trkpt lat="44.99425" lon="3.71099">
        <ele>1159.1</ele>
        <time>2019-12-07T09:12:12Z</time>
      </trkpt>
      <trkpt lat="44.99427" lon="3.71103">
        <ele>1159.3</ele>
        <time>2019-12-07T09:12:14Z</time>
      </trkpt>
      <trkpt lat="44.99442" lon="3.71144">
        <ele>1161.9</ele>
        <time>2019-12-07T09:12:32Z</time>
      </trkpt>
      <trkpt lat="44.99444" lon="3.71151">
        <ele>1162</ele>
        <time>2019-12-07T09:12:35Z</time>
      </trkpt>
      <trkpt lat="44.99445" lon="3.71155">
        <ele>1162.2</ele>
        <time>2019-12-07T09:12:37Z</time>
      </trkpt>
      <trkpt lat="44.99445" lon="3.71158">
        <ele>1162.2</ele>
        <time>2019-12-07T09:12:38Z</time>
      </trkpt>
      <trkpt lat="44.99446" lon="3.7116">
        <ele>1162.3</ele>
        <time>2019-12-07T09:12:39Z</time>
      </trkpt>
      <trkpt lat="44.99447" lon="3.71162">
        <ele>1162.3</ele>
        <time>2019-12-07T09:12:40Z</time>
      </trkpt>
      <trkpt lat="44.99447" lon="3.71164">
        <ele>1162.4</ele>
        <time>2019-12-07T09:12:41Z</time>
      </trkpt>
      <trkpt lat="44.99456" lon="3.71195">
        <ele>1164.3</ele>
        <time>2019-12-07T09:12:55Z</time>
      </trkpt>
      <trkpt lat="44.99456" lon="3.71197">
        <ele>1164.4</ele>
        <time>2019-12-07T09:12:56Z</time>
      </trkpt>
      <trkpt lat="44.99457" lon="3.71199">
        <ele>1164.6</ele>
        <time>2019-12-07T09:12:57Z</time>
      </trkpt>
      <trkpt lat="44.99462" lon="3.7121">
        <ele>1166.1</ele>
        <time>2019-12-07T09:13:03Z</time>
      </trkpt>
      <trkpt lat="44.99466" lon="3.71217">
        <ele>1167.2</ele>
        <time>2019-12-07T09:13:07Z</time>
      </trkpt>
      <trkpt lat="44.99472" lon="3.71236">
        <ele>1170.5</ele>
        <time>2019-12-07T09:13:17Z</time>
      </trkpt>
      <trkpt lat="44.99474" lon="3.7124">
        <ele>1171.2</ele>
        <time>2019-12-07T09:13:19Z</time>
      </trkpt>
      <trkpt lat="44.9948" lon="3.71269">
        <ele>1176.2</ele>
        <time>2019-12-07T09:13:35Z</time>
      </trkpt>
      <trkpt lat="44.99481" lon="3.71271">
        <ele>1176.5</ele>
        <time>2019-12-07T09:13:36Z</time>
      </trkpt>
      <trkpt lat="44.99481" lon="3.71272">
        <ele>1176.8</ele>
        <time>2019-12-07T09:13:37Z</time>
      </trkpt>
      <trkpt lat="44.99481" lon="3.71274">
        <ele>1177</ele>
        <time>2019-12-07T09:13:38Z</time>
      </trkpt>
      <trkpt lat="44.99482" lon="3.71277">
        <ele>1177.6</ele>
        <time>2019-12-07T09:13:40Z</time>
      </trkpt>
      <trkpt lat="44.99485" lon="3.7129">
        <ele>1178.9</ele>
        <time>2019-12-07T09:13:48Z</time>
      </trkpt>
      <trkpt lat="44.99487" lon="3.71297">
        <ele>1179.5</ele>
        <time>2019-12-07T09:13:52Z</time>
      </trkpt>
      <trkpt lat="44.9949" lon="3.71316">
        <ele>1180.7</ele>
        <time>2019-12-07T09:14:03Z</time>
      </trkpt>
      <trkpt lat="44.99491" lon="3.71319">
        <ele>1180.9</ele>
        <time>2019-12-07T09:14:05Z</time>
      </trkpt>
      <trkpt lat="44.99491" lon="3.71323">
        <ele>1181</ele>
        <time>2019-12-07T09:14:07Z</time>
      </trkpt>
      <trkpt lat="44.99492" lon="3.71336">
        <ele>1181.4</ele>
        <time>2019-12-07T09:14:14Z</time>
      </trkpt>
      <trkpt lat="44.99491" lon="3.71341">
        <ele>1181.6</ele>
        <time>2019-12-07T09:14:17Z</time>
      </trkpt>
      <trkpt lat="44.99491" lon="3.71357">
        <ele>1182</ele>
        <time>2019-12-07T09:14:26Z</time>
      </trkpt>
      <trkpt lat="44.99492" lon="3.71361">
        <ele>1182.2</ele>
        <time>2019-12-07T09:14:28Z</time>
      </trkpt>
      <trkpt lat="44.99493" lon="3.71363">
        <ele>1182.3</ele>
        <time>2019-12-07T09:14:29Z</time>
      </trkpt>
      <trkpt lat="44.99493" lon="3.71364">
        <ele>1182.3</ele>
        <time>2019-12-07T09:14:30Z</time>
      </trkpt>
      <trkpt lat="44.99494" lon="3.71366">
        <ele>1182.4</ele>
        <time>2019-12-07T09:14:31Z</time>
      </trkpt>
      <trkpt lat="44.99495" lon="3.71367">
        <ele>1182.5</ele>
        <time>2019-12-07T09:14:32Z</time>
      </trkpt>
      <trkpt lat="44.99499" lon="3.7138">
        <ele>1183.4</ele>
        <time>2019-12-07T09:14:40Z</time>
      </trkpt>
      <trkpt lat="44.99501" lon="3.71383">
        <ele>1183.7</ele>
        <time>2019-12-07T09:14:42Z</time>
      </trkpt>
      <trkpt lat="44.99504" lon="3.71392">
        <ele>1184.5</ele>
        <time>2019-12-07T09:14:47Z</time>
      </trkpt>
      <trkpt lat="44.99507" lon="3.71407">
        <ele>1186.1</ele>
        <time>2019-12-07T09:14:56Z</time>
      </trkpt>
      <trkpt lat="44.99507" lon="3.71409">
        <ele>1186.2</ele>
        <time>2019-12-07T09:14:57Z</time>
      </trkpt>
      <trkpt lat="44.99507" lon="3.7141">
        <ele>1186.4</ele>
        <time>2019-12-07T09:14:58Z</time>
      </trkpt>
      <trkpt lat="44.99507" lon="3.71412">
        <ele>1186.6</ele>
        <time>2019-12-07T09:14:59Z</time>
      </trkpt>
      <trkpt lat="44.99508" lon="3.71413">
        <ele>1186.8</ele>
        <time>2019-12-07T09:15:00Z</time>
      </trkpt>
      <trkpt lat="44.99511" lon="3.71419">
        <ele>1187.6</ele>
        <time>2019-12-07T09:15:05Z</time>
      </trkpt>
      <trkpt lat="44.99516" lon="3.71431">
        <ele>1189.2</ele>
        <time>2019-12-07T09:15:13Z</time>
      </trkpt>
      <trkpt lat="44.99518" lon="3.71436">
        <ele>1189.8</ele>
        <time>2019-12-07T09:15:16Z</time>
      </trkpt>
      <trkpt lat="44.99519" lon="3.71438">
        <ele>1190</ele>
        <time>2019-12-07T09:15:17Z</time>
      </trkpt>
      <trkpt lat="44.99522" lon="3.71451">
        <ele>1191.3</ele>
        <time>2019-12-07T09:15:25Z</time>
      </trkpt>
      <trkpt lat="44.99523" lon="3.71455">
        <ele>1191.6</ele>
        <time>2019-12-07T09:15:27Z</time>
      </trkpt>
      <trkpt lat="44.99525" lon="3.71459">
        <ele>1192</ele>
        <time>2019-12-07T09:15:29Z</time>
      </trkpt>
      <trkpt lat="44.99525" lon="3.71461">
        <ele>1192.2</ele>
        <time>2019-12-07T09:15:30Z</time>
      </trkpt>
      <trkpt lat="44.99532" lon="3.71482">
        <ele>1193.7</ele>
        <time>2019-12-07T09:15:39Z</time>
      </trkpt>
      <trkpt lat="44.99536" lon="3.71492">
        <ele>1194.5</ele>
        <time>2019-12-07T09:15:43Z</time>
      </trkpt>
      <trkpt lat="44.9954" lon="3.71517">
        <ele>1196.9</ele>
        <time>2019-12-07T09:15:51Z</time>
      </trkpt>
      <trkpt lat="44.99548" lon="3.71545">
        <ele>1200.1</ele>
        <time>2019-12-07T09:15:59Z</time>
      </trkpt>
      <trkpt lat="44.99553" lon="3.71556">
        <ele>1201</ele>
        <time>2019-12-07T09:16:03Z</time>
      </trkpt>
      <trkpt lat="44.99561" lon="3.71573">
        <ele>1201.8</ele>
        <time>2019-12-07T09:16:09Z</time>
      </trkpt>
      <trkpt lat="44.99565" lon="3.71581">
        <ele>1202.3</ele>
        <time>2019-12-07T09:16:12Z</time>
      </trkpt>
      <trkpt lat="44.99568" lon="3.71587">
        <ele>1202.6</ele>
        <time>2019-12-07T09:16:15Z</time>
      </trkpt>
      <trkpt lat="44.99575" lon="3.71601">
        <ele>1203.4</ele>
        <time>2019-12-07T09:16:22Z</time>
      </trkpt>
      <trkpt lat="44.99581" lon="3.71612">
        <ele>1204.2</ele>
        <time>2019-12-07T09:16:28Z</time>
      </trkpt>
      <trkpt lat="44.99582" lon="3.71614">
        <ele>1204.2</ele>
        <time>2019-12-07T09:16:29Z</time>
      </trkpt>
      <trkpt lat="44.99583" lon="3.71616">
        <ele>1204.3</ele>
        <time>2019-12-07T09:16:30Z</time>
      </trkpt>
      <trkpt lat="44.99587" lon="3.71624">
        <ele>1204.6</ele>
        <time>2019-12-07T09:16:35Z</time>
      </trkpt>
      <trkpt lat="44.99589" lon="3.71625">
        <ele>1204.7</ele>
        <time>2019-12-07T09:16:36Z</time>
      </trkpt>
      <trkpt lat="44.9959" lon="3.71626">
        <ele>1204.7</ele>
        <time>2019-12-07T09:16:37Z</time>
      </trkpt>
      <trkpt lat="44.9959" lon="3.71628">
        <ele>1204.8</ele>
        <time>2019-12-07T09:16:38Z</time>
      </trkpt>
      <trkpt lat="44.99591" lon="3.7163">
        <ele>1204.8</ele>
        <time>2019-12-07T09:16:39Z</time>
      </trkpt>
      <trkpt lat="44.99592" lon="3.71631">
        <ele>1205</ele>
        <time>2019-12-07T09:16:40Z</time>
      </trkpt>
      <trkpt lat="44.99593" lon="3.71631">
        <ele>1205.1</ele>
        <time>2019-12-07T09:16:41Z</time>
      </trkpt>
      <trkpt lat="44.99594" lon="3.71631">
        <ele>1205.2</ele>
        <time>2019-12-07T09:16:46Z</time>
      </trkpt>
      <trkpt lat="44.99594" lon="3.71632">
        <ele>1205.2</ele>
        <time>2019-12-07T09:16:48Z</time>
      </trkpt>
      <trkpt lat="44.99597" lon="3.7163">
        <ele>1205.6</ele>
        <time>2019-12-07T09:18:39Z</time>
      </trkpt>
      <trkpt lat="44.99597" lon="3.71629">
        <ele>1205.7</ele>
        <time>2019-12-07T09:18:40Z</time>
      </trkpt>
      <trkpt lat="44.99601" lon="3.7163">
        <ele>1206.1</ele>
        <time>2019-12-07T09:18:45Z</time>
      </trkpt>
      <trkpt lat="44.99602" lon="3.7163">
        <ele>1206.1</ele>
        <time>2019-12-07T09:18:46Z</time>
      </trkpt>
      <trkpt lat="44.99603" lon="3.7163">
        <ele>1206.3</ele>
        <time>2019-12-07T09:18:52Z</time>
      </trkpt>
      <trkpt lat="44.99601" lon="3.71631">
        <ele>1206.5</ele>
        <time>2019-12-07T09:20:14Z</time>
      </trkpt>
      <trkpt lat="44.99603" lon="3.71631">
        <ele>1206.6</ele>
        <time>2019-12-07T09:20:15Z</time>
      </trkpt>
      <trkpt lat="44.99613" lon="3.71634">
        <ele>1207.4</ele>
        <time>2019-12-07T09:20:20Z</time>
      </trkpt>
      <trkpt lat="44.99632" lon="3.7164">
        <ele>1209.4</ele>
        <time>2019-12-07T09:20:28Z</time>
      </trkpt>
      <trkpt lat="44.99666" lon="3.71659">
        <ele>1212.1</ele>
        <time>2019-12-07T09:20:45Z</time>
      </trkpt>
      <trkpt lat="44.9968" lon="3.71664">
        <ele>1213.2</ele>
        <time>2019-12-07T09:20:51Z</time>
      </trkpt>
      <trkpt lat="44.99694" lon="3.7167">
        <ele>1214.3</ele>
        <time>2019-12-07T09:20:57Z</time>
      </trkpt>
      <trkpt lat="44.99721" lon="3.71683">
        <ele>1215</ele>
        <time>2019-12-07T09:21:08Z</time>
      </trkpt>
      <trkpt lat="44.99723" lon="3.71685">
        <ele>1215</ele>
        <time>2019-12-07T09:21:09Z</time>
      </trkpt>
      <trkpt lat="44.99724" lon="3.71687">
        <ele>1215</ele>
        <time>2019-12-07T09:21:10Z</time>
      </trkpt>
      <trkpt lat="44.99743" lon="3.71762">
        <ele>1214.2</ele>
        <time>2019-12-07T09:21:30Z</time>
      </trkpt>
      <trkpt lat="44.9975" lon="3.71811">
        <ele>1213.7</ele>
        <time>2019-12-07T09:21:42Z</time>
      </trkpt>
      <trkpt lat="44.99761" lon="3.71852">
        <ele>1212.6</ele>
        <time>2019-12-07T09:21:53Z</time>
      </trkpt>
      <trkpt lat="44.99763" lon="3.71858">
        <ele>1212.3</ele>
        <time>2019-12-07T09:21:55Z</time>
      </trkpt>
      <trkpt lat="44.99765" lon="3.71862">
        <ele>1212.2</ele>
        <time>2019-12-07T09:21:56Z</time>
      </trkpt>
      <trkpt lat="44.99766" lon="3.71866">
        <ele>1212.1</ele>
        <time>2019-12-07T09:21:57Z</time>
      </trkpt>
      <trkpt lat="44.99768" lon="3.7187">
        <ele>1212</ele>
        <time>2019-12-07T09:21:58Z</time>
      </trkpt>
      <trkpt lat="44.99769" lon="3.71873">
        <ele>1211.9</ele>
        <time>2019-12-07T09:21:59Z</time>
      </trkpt>
      <trkpt lat="44.99809" lon="3.71937">
        <ele>1211.3</ele>
        <time>2019-12-07T09:22:17Z</time>
      </trkpt>
      <trkpt lat="44.99826" lon="3.71956">
        <ele>1211.5</ele>
        <time>2019-12-07T09:22:23Z</time>
      </trkpt>
      <trkpt lat="44.99837" lon="3.71997">
        <ele>1211.3</ele>
        <time>2019-12-07T09:22:33Z</time>
      </trkpt>
      <trkpt lat="44.99807" lon="3.72055">
        <ele>1211.3</ele>
        <time>2019-12-07T09:22:49Z</time>
      </trkpt>
      <trkpt lat="44.99789" lon="3.72097">
        <ele>1210.9</ele>
        <time>2019-12-07T09:22:58Z</time>
      </trkpt>
      <trkpt lat="44.99781" lon="3.72127">
        <ele>1211</ele>
        <time>2019-12-07T09:23:04Z</time>
      </trkpt>
      <trkpt lat="44.99779" lon="3.72133">
        <ele>1211</ele>
        <time>2019-12-07T09:23:05Z</time>
      </trkpt>
      <trkpt lat="44.99772" lon="3.72196">
        <ele>1212.3</ele>
        <time>2019-12-07T09:23:16Z</time>
      </trkpt>
      <trkpt lat="44.99788" lon="3.72278">
        <ele>1211.2</ele>
        <time>2019-12-07T09:23:33Z</time>
      </trkpt>
      <trkpt lat="44.998" lon="3.72324">
        <ele>1210.7</ele>
        <time>2019-12-07T09:23:43Z</time>
      </trkpt>
      <trkpt lat="44.99798" lon="3.72374">
        <ele>1209.9</ele>
        <time>2019-12-07T09:23:53Z</time>
      </trkpt>
      <trkpt lat="44.99797" lon="3.72381">
        <ele>1209.9</ele>
        <time>2019-12-07T09:23:54Z</time>
      </trkpt>
      <trkpt lat="44.99795" lon="3.72428">
        <ele>1209.8</ele>
        <time>2019-12-07T09:24:00Z</time>
      </trkpt>
      <trkpt lat="44.99793" lon="3.72437">
        <ele>1209.8</ele>
        <time>2019-12-07T09:24:01Z</time>
      </trkpt>
      <trkpt lat="44.9979" lon="3.72447">
        <ele>1209.8</ele>
        <time>2019-12-07T09:24:02Z</time>
      </trkpt>
      <trkpt lat="44.99787" lon="3.72467">
        <ele>1209.2</ele>
        <time>2019-12-07T09:24:04Z</time>
      </trkpt>
      <trkpt lat="44.99786" lon="3.72476">
        <ele>1208.9</ele>
        <time>2019-12-07T09:24:05Z</time>
      </trkpt>
      <trkpt lat="44.99786" lon="3.72486">
        <ele>1208.6</ele>
        <time>2019-12-07T09:24:06Z</time>
      </trkpt>
      <trkpt lat="44.99786" lon="3.72494">
        <ele>1208.3</ele>
        <time>2019-12-07T09:24:07Z</time>
      </trkpt>
      <trkpt lat="44.99786" lon="3.72501">
        <ele>1208.1</ele>
        <time>2019-12-07T09:24:08Z</time>
      </trkpt>
      <trkpt lat="44.99786" lon="3.72514">
        <ele>1207.6</ele>
        <time>2019-12-07T09:24:10Z</time>
      </trkpt>
      <trkpt lat="44.99785" lon="3.72545">
        <ele>1205.9</ele>
        <time>2019-12-07T09:24:14Z</time>
      </trkpt>
      <trkpt lat="44.99785" lon="3.72553">
        <ele>1205.5</ele>
        <time>2019-12-07T09:24:15Z</time>
      </trkpt>
      <trkpt lat="44.99788" lon="3.7257">
        <ele>1204.7</ele>
        <time>2019-12-07T09:24:17Z</time>
      </trkpt>
      <trkpt lat="44.9979" lon="3.7259">
        <ele>1203.8</ele>
        <time>2019-12-07T09:24:19Z</time>
      </trkpt>
      <trkpt lat="44.99796" lon="3.72651">
        <ele>1200.1</ele>
        <time>2019-12-07T09:24:25Z</time>
      </trkpt>
      <trkpt lat="44.99799" lon="3.72695">
        <ele>1197.3</ele>
        <time>2019-12-07T09:24:29Z</time>
      </trkpt>
      <trkpt lat="44.99801" lon="3.72707">
        <ele>1196.6</ele>
        <time>2019-12-07T09:24:30Z</time>
      </trkpt>
      <trkpt lat="44.99802" lon="3.72719">
        <ele>1196</ele>
        <time>2019-12-07T09:24:31Z</time>
      </trkpt>
      <trkpt lat="44.99803" lon="3.72765">
        <ele>1192.4</ele>
        <time>2019-12-07T09:24:35Z</time>
      </trkpt>
      <trkpt lat="44.99801" lon="3.72776">
        <ele>1191.2</ele>
        <time>2019-12-07T09:24:36Z</time>
      </trkpt>
      <trkpt lat="44.99796" lon="3.72812">
        <ele>1188.2</ele>
        <time>2019-12-07T09:24:39Z</time>
      </trkpt>
      <trkpt lat="44.99795" lon="3.72824">
        <ele>1187.3</ele>
        <time>2019-12-07T09:24:40Z</time>
      </trkpt>
      <trkpt lat="44.99793" lon="3.72874">
        <ele>1185</ele>
        <time>2019-12-07T09:24:44Z</time>
      </trkpt>
      <trkpt lat="44.99792" lon="3.72944">
        <ele>1182.3</ele>
        <time>2019-12-07T09:24:50Z</time>
      </trkpt>
      <trkpt lat="44.99792" lon="3.72966">
        <ele>1181.2</ele>
        <time>2019-12-07T09:24:52Z</time>
      </trkpt>
      <trkpt lat="44.99792" lon="3.72977">
        <ele>1180.5</ele>
        <time>2019-12-07T09:24:53Z</time>
      </trkpt>
      <trkpt lat="44.9979" lon="3.73">
        <ele>1179.3</ele>
        <time>2019-12-07T09:24:55Z</time>
      </trkpt>
      <trkpt lat="44.99786" lon="3.73019">
        <ele>1178.2</ele>
        <time>2019-12-07T09:24:57Z</time>
      </trkpt>
      <trkpt lat="44.99779" lon="3.73047">
        <ele>1176.4</ele>
        <time>2019-12-07T09:25:00Z</time>
      </trkpt>
      <trkpt lat="44.99777" lon="3.73057">
        <ele>1175.7</ele>
        <time>2019-12-07T09:25:01Z</time>
      </trkpt>
      <trkpt lat="44.99773" lon="3.73077">
        <ele>1174.1</ele>
        <time>2019-12-07T09:25:03Z</time>
      </trkpt>
      <trkpt lat="44.99759" lon="3.73118">
        <ele>1170.6</ele>
        <time>2019-12-07T09:25:07Z</time>
      </trkpt>
      <trkpt lat="44.99757" lon="3.7313">
        <ele>1169.6</ele>
        <time>2019-12-07T09:25:08Z</time>
      </trkpt>
      <trkpt lat="44.99756" lon="3.73141">
        <ele>1168.9</ele>
        <time>2019-12-07T09:25:09Z</time>
      </trkpt>
      <trkpt lat="44.99756" lon="3.73151">
        <ele>1168.3</ele>
        <time>2019-12-07T09:25:10Z</time>
      </trkpt>
      <trkpt lat="44.99758" lon="3.73159">
        <ele>1167.9</ele>
        <time>2019-12-07T09:25:11Z</time>
      </trkpt>
      <trkpt lat="44.99761" lon="3.73165">
        <ele>1167.7</ele>
        <time>2019-12-07T09:25:12Z</time>
      </trkpt>
      <trkpt lat="44.99768" lon="3.73167">
        <ele>1167.5</ele>
        <time>2019-12-07T09:25:13Z</time>
      </trkpt>
      <trkpt lat="44.99774" lon="3.73169">
        <ele>1167.4</ele>
        <time>2019-12-07T09:25:14Z</time>
      </trkpt>
      <trkpt lat="44.9978" lon="3.73169">
        <ele>1167.3</ele>
        <time>2019-12-07T09:25:15Z</time>
      </trkpt>
      <trkpt lat="44.99786" lon="3.7317">
        <ele>1167.3</ele>
        <time>2019-12-07T09:25:16Z</time>
      </trkpt>
      <trkpt lat="44.99791" lon="3.73172">
        <ele>1167.3</ele>
        <time>2019-12-07T09:25:17Z</time>
      </trkpt>
      <trkpt lat="44.99797" lon="3.73174">
        <ele>1167.4</ele>
        <time>2019-12-07T09:25:18Z</time>
      </trkpt>
      <trkpt lat="44.99803" lon="3.73174">
        <ele>1167.4</ele>
        <time>2019-12-07T09:25:19Z</time>
      </trkpt>
      <trkpt lat="44.99808" lon="3.73175">
        <ele>1167.5</ele>
        <time>2019-12-07T09:25:20Z</time>
      </trkpt>
      <trkpt lat="44.99868" lon="3.73178">
        <ele>1166</ele>
        <time>2019-12-07T09:25:36Z</time>
      </trkpt>
      <trkpt lat="44.99908" lon="3.73171">
        <ele>1164</ele>
        <time>2019-12-07T09:25:44Z</time>
      </trkpt>
      <trkpt lat="44.99914" lon="3.73171">
        <ele>1163.6</ele>
        <time>2019-12-07T09:25:45Z</time>
      </trkpt>
      <trkpt lat="44.9992" lon="3.7317">
        <ele>1163.2</ele>
        <time>2019-12-07T09:25:46Z</time>
      </trkpt>
      <trkpt lat="44.99925" lon="3.73168">
        <ele>1162.9</ele>
        <time>2019-12-07T09:25:47Z</time>
      </trkpt>
      <trkpt lat="44.9993" lon="3.73166">
        <ele>1162.6</ele>
        <time>2019-12-07T09:25:48Z</time>
      </trkpt>
      <trkpt lat="44.99936" lon="3.73165">
        <ele>1162.2</ele>
        <time>2019-12-07T09:25:49Z</time>
      </trkpt>
      <trkpt lat="44.99941" lon="3.73164">
        <ele>1161.9</ele>
        <time>2019-12-07T09:25:50Z</time>
      </trkpt>
      <trkpt lat="44.99946" lon="3.73162">
        <ele>1161.6</ele>
        <time>2019-12-07T09:25:51Z</time>
      </trkpt>
      <trkpt lat="44.99966" lon="3.7316">
        <ele>1160.7</ele>
        <time>2019-12-07T09:25:55Z</time>
      </trkpt>
      <trkpt lat="44.99975" lon="3.7316">
        <ele>1160.4</ele>
        <time>2019-12-07T09:25:57Z</time>
      </trkpt>
      <trkpt lat="44.9998" lon="3.73159">
        <ele>1160.2</ele>
        <time>2019-12-07T09:25:58Z</time>
      </trkpt>
      <trkpt lat="44.99985" lon="3.7316">
        <ele>1160.1</ele>
        <time>2019-12-07T09:25:59Z</time>
      </trkpt>
      <trkpt lat="44.99989" lon="3.7316">
        <ele>1160</ele>
        <time>2019-12-07T09:26:00Z</time>
      </trkpt>
      <trkpt lat="44.99993" lon="3.73161">
        <ele>1159.9</ele>
        <time>2019-12-07T09:26:01Z</time>
      </trkpt>
      <trkpt lat="44.99997" lon="3.7316">
        <ele>1159.7</ele>
        <time>2019-12-07T09:26:02Z</time>
      </trkpt>
      <trkpt lat="45.00002" lon="3.7316">
        <ele>1159.5</ele>
        <time>2019-12-07T09:26:03Z</time>
      </trkpt>
      <trkpt lat="45.00006" lon="3.73159">
        <ele>1159.4</ele>
        <time>2019-12-07T09:26:04Z</time>
      </trkpt>
      <trkpt lat="45.00026" lon="3.7316">
        <ele>1158.6</ele>
        <time>2019-12-07T09:26:08Z</time>
      </trkpt>
      <trkpt lat="45.00031" lon="3.7316">
        <ele>1158.4</ele>
        <time>2019-12-07T09:26:09Z</time>
      </trkpt>
      <trkpt lat="45.00036" lon="3.73161">
        <ele>1158.1</ele>
        <time>2019-12-07T09:26:10Z</time>
      </trkpt>
      <trkpt lat="45.00043" lon="3.73163">
        <ele>1157.7</ele>
        <time>2019-12-07T09:26:11Z</time>
      </trkpt>
      <trkpt lat="45.00049" lon="3.73165">
        <ele>1157.2</ele>
        <time>2019-12-07T09:26:12Z</time>
      </trkpt>
      <trkpt lat="45.00057" lon="3.73166">
        <ele>1156.6</ele>
        <time>2019-12-07T09:26:13Z</time>
      </trkpt>
      <trkpt lat="45.00086" lon="3.73166">
        <ele>1154.4</ele>
        <time>2019-12-07T09:26:17Z</time>
      </trkpt>
      <trkpt lat="45.00125" lon="3.73167">
        <ele>1151.7</ele>
        <time>2019-12-07T09:26:22Z</time>
      </trkpt>
      <trkpt lat="45.00133" lon="3.73167">
        <ele>1151</ele>
        <time>2019-12-07T09:26:23Z</time>
      </trkpt>
      <trkpt lat="45.00143" lon="3.73167">
        <ele>1150</ele>
        <time>2019-12-07T09:26:24Z</time>
      </trkpt>
      <trkpt lat="45.00187" lon="3.73162">
        <ele>1146.3</ele>
        <time>2019-12-07T09:26:29Z</time>
      </trkpt>
      <trkpt lat="45.00204" lon="3.7316">
        <ele>1144.8</ele>
        <time>2019-12-07T09:26:31Z</time>
      </trkpt>
      <trkpt lat="45.00212" lon="3.73158">
        <ele>1143.9</ele>
        <time>2019-12-07T09:26:32Z</time>
      </trkpt>
      <trkpt lat="45.00245" lon="3.73149">
        <ele>1140.4</ele>
        <time>2019-12-07T09:26:36Z</time>
      </trkpt>
      <trkpt lat="45.00277" lon="3.73138">
        <ele>1137.5</ele>
        <time>2019-12-07T09:26:40Z</time>
      </trkpt>
      <trkpt lat="45.00323" lon="3.73125">
        <ele>1134.2</ele>
        <time>2019-12-07T09:26:46Z</time>
      </trkpt>
      <trkpt lat="45.00337" lon="3.73126">
        <ele>1132.8</ele>
        <time>2019-12-07T09:26:48Z</time>
      </trkpt>
      <trkpt lat="45.00345" lon="3.73129">
        <ele>1131.9</ele>
        <time>2019-12-07T09:26:49Z</time>
      </trkpt>
      <trkpt lat="45.00369" lon="3.73142">
        <ele>1128.1</ele>
        <time>2019-12-07T09:26:53Z</time>
      </trkpt>
      <trkpt lat="45.00371" lon="3.73144">
        <ele>1127.8</ele>
        <time>2019-12-07T09:26:54Z</time>
      </trkpt>
      <trkpt lat="45.00373" lon="3.73146">
        <ele>1127.4</ele>
        <time>2019-12-07T09:26:55Z</time>
      </trkpt>
      <trkpt lat="45.00374" lon="3.73149">
        <ele>1126.9</ele>
        <time>2019-12-07T09:26:56Z</time>
      </trkpt>
      <trkpt lat="45.00376" lon="3.73156">
        <ele>1126</ele>
        <time>2019-12-07T09:27:00Z</time>
      </trkpt>
      <trkpt lat="45.00376" lon="3.73156">
        <ele>1126</ele>
        <time>2019-12-07T09:27:05Z</time>
      </trkpt>
      <trkpt lat="45.00378" lon="3.73164">
        <ele>1125.1</ele>
        <time>2019-12-07T09:27:10Z</time>
      </trkpt>
      <trkpt lat="45.00382" lon="3.73226">
        <ele>1118.9</ele>
        <time>2019-12-07T09:27:19Z</time>
      </trkpt>
      <trkpt lat="45.00384" lon="3.73267">
        <ele>1116.5</ele>
        <time>2019-12-07T09:27:23Z</time>
      </trkpt>
      <trkpt lat="45.00385" lon="3.73278">
        <ele>1116</ele>
        <time>2019-12-07T09:27:24Z</time>
      </trkpt>
      <trkpt lat="45.00387" lon="3.73311">
        <ele>1114.2</ele>
        <time>2019-12-07T09:27:27Z</time>
      </trkpt>
      <trkpt lat="45.00394" lon="3.73398">
        <ele>1108.5</ele>
        <time>2019-12-07T09:27:34Z</time>
      </trkpt>
      <trkpt lat="45.00396" lon="3.73412">
        <ele>1107.3</ele>
        <time>2019-12-07T09:27:35Z</time>
      </trkpt>
      <trkpt lat="45.0041" lon="3.73482">
        <ele>1103.4</ele>
        <time>2019-12-07T09:27:40Z</time>
      </trkpt>
      <trkpt lat="45.00418" lon="3.73509">
        <ele>1101.4</ele>
        <time>2019-12-07T09:27:42Z</time>
      </trkpt>
      <trkpt lat="45.00424" lon="3.73522">
        <ele>1100.4</ele>
        <time>2019-12-07T09:27:43Z</time>
      </trkpt>
      <trkpt lat="45.00431" lon="3.73534">
        <ele>1099.1</ele>
        <time>2019-12-07T09:27:44Z</time>
      </trkpt>
      <trkpt lat="45.00439" lon="3.73545">
        <ele>1097.7</ele>
        <time>2019-12-07T09:27:45Z</time>
      </trkpt>
      <trkpt lat="45.00448" lon="3.73557">
        <ele>1096.6</ele>
        <time>2019-12-07T09:27:46Z</time>
      </trkpt>
      <trkpt lat="45.00456" lon="3.73569">
        <ele>1095.5</ele>
        <time>2019-12-07T09:27:47Z</time>
      </trkpt>
      <trkpt lat="45.00463" lon="3.73583">
        <ele>1094.4</ele>
        <time>2019-12-07T09:27:48Z</time>
      </trkpt>
      <trkpt lat="45.00468" lon="3.73598">
        <ele>1093.4</ele>
        <time>2019-12-07T09:27:49Z</time>
      </trkpt>
      <trkpt lat="45.00486" lon="3.73641">
        <ele>1091.5</ele>
        <time>2019-12-07T09:27:52Z</time>
      </trkpt>
      <trkpt lat="45.00506" lon="3.7368">
        <ele>1090.4</ele>
        <time>2019-12-07T09:27:55Z</time>
      </trkpt>
      <trkpt lat="45.00522" lon="3.73721">
        <ele>1089.9</ele>
        <time>2019-12-07T09:27:58Z</time>
      </trkpt>
      <trkpt lat="45.00535" lon="3.73762">
        <ele>1089</ele>
        <time>2019-12-07T09:28:01Z</time>
      </trkpt>
      <trkpt lat="45.00556" lon="3.73841">
        <ele>1087.6</ele>
        <time>2019-12-07T09:28:07Z</time>
      </trkpt>
      <trkpt lat="45.00578" lon="3.73924">
        <ele>1086.1</ele>
        <time>2019-12-07T09:28:14Z</time>
      </trkpt>
      <trkpt lat="45.00595" lon="3.74002">
        <ele>1083.9</ele>
        <time>2019-12-07T09:28:21Z</time>
      </trkpt>
      <trkpt lat="45.00618" lon="3.74065">
        <ele>1082.6</ele>
        <time>2019-12-07T09:28:27Z</time>
      </trkpt>
      <trkpt lat="45.0062" lon="3.74076">
        <ele>1082.5</ele>
        <time>2019-12-07T09:28:28Z</time>
      </trkpt>
      <trkpt lat="45.0062" lon="3.74087">
        <ele>1082.7</ele>
        <time>2019-12-07T09:28:29Z</time>
      </trkpt>
      <trkpt lat="45.00619" lon="3.74097">
        <ele>1082.9</ele>
        <time>2019-12-07T09:28:30Z</time>
      </trkpt>
      <trkpt lat="45.00618" lon="3.74106">
        <ele>1083.2</ele>
        <time>2019-12-07T09:28:31Z</time>
      </trkpt>
      <trkpt lat="45.00617" lon="3.74115">
        <ele>1083.5</ele>
        <time>2019-12-07T09:28:32Z</time>
      </trkpt>
      <trkpt lat="45.00617" lon="3.74124">
        <ele>1083.7</ele>
        <time>2019-12-07T09:28:33Z</time>
      </trkpt>
      <trkpt lat="45.00618" lon="3.74131">
        <ele>1084.1</ele>
        <time>2019-12-07T09:28:34Z</time>
      </trkpt>
      <trkpt lat="45.00619" lon="3.74138">
        <ele>1084.4</ele>
        <time>2019-12-07T09:28:35Z</time>
      </trkpt>
      <trkpt lat="45.00621" lon="3.74144">
        <ele>1084.6</ele>
        <time>2019-12-07T09:28:36Z</time>
      </trkpt>
      <trkpt lat="45.00623" lon="3.74151">
        <ele>1084.7</ele>
        <time>2019-12-07T09:28:37Z</time>
      </trkpt>
      <trkpt lat="45.00625" lon="3.74157">
        <ele>1084.8</ele>
        <time>2019-12-07T09:28:38Z</time>
      </trkpt>
      <trkpt lat="45.0063" lon="3.74174">
        <ele>1085</ele>
        <time>2019-12-07T09:28:41Z</time>
      </trkpt>
      <trkpt lat="45.00633" lon="3.74179">
        <ele>1085</ele>
        <time>2019-12-07T09:28:42Z</time>
      </trkpt>
      <trkpt lat="45.00635" lon="3.74183">
        <ele>1084.9</ele>
        <time>2019-12-07T09:28:43Z</time>
      </trkpt>
      <trkpt lat="45.00648" lon="3.74199">
        <ele>1084.5</ele>
        <time>2019-12-07T09:28:47Z</time>
      </trkpt>
      <trkpt lat="45.00651" lon="3.74202">
        <ele>1084.4</ele>
        <time>2019-12-07T09:28:48Z</time>
      </trkpt>
      <trkpt lat="45.00659" lon="3.74207">
        <ele>1084.2</ele>
        <time>2019-12-07T09:28:50Z</time>
      </trkpt>
      <trkpt lat="45.00668" lon="3.74213">
        <ele>1084.1</ele>
        <time>2019-12-07T09:28:52Z</time>
      </trkpt>
      <trkpt lat="45.00672" lon="3.74217">
        <ele>1084.1</ele>
        <time>2019-12-07T09:28:53Z</time>
      </trkpt>
      <trkpt lat="45.00676" lon="3.74221">
        <ele>1084.1</ele>
        <time>2019-12-07T09:28:54Z</time>
      </trkpt>
      <trkpt lat="45.00679" lon="3.74226">
        <ele>1084.1</ele>
        <time>2019-12-07T09:28:55Z</time>
      </trkpt>
      <trkpt lat="45.00681" lon="3.74231">
        <ele>1084.1</ele>
        <time>2019-12-07T09:28:56Z</time>
      </trkpt>
      <trkpt lat="45.00683" lon="3.74236">
        <ele>1084.2</ele>
        <time>2019-12-07T09:28:57Z</time>
      </trkpt>
      <trkpt lat="45.00685" lon="3.74242">
        <ele>1084.3</ele>
        <time>2019-12-07T09:28:58Z</time>
      </trkpt>
      <trkpt lat="45.00686" lon="3.74246">
        <ele>1084.5</ele>
        <time>2019-12-07T09:28:59Z</time>
      </trkpt>
      <trkpt lat="45.00693" lon="3.74313">
        <ele>1084.9</ele>
        <time>2019-12-07T09:29:10Z</time>
      </trkpt>
      <trkpt lat="45.00693" lon="3.7432">
        <ele>1085</ele>
        <time>2019-12-07T09:29:11Z</time>
      </trkpt>
      <trkpt lat="45.0069" lon="3.74327">
        <ele>1085.1</ele>
        <time>2019-12-07T09:29:12Z</time>
      </trkpt>
      <trkpt lat="45.00687" lon="3.74332">
        <ele>1085.2</ele>
        <time>2019-12-07T09:29:13Z</time>
      </trkpt>
      <trkpt lat="45.00682" lon="3.74336">
        <ele>1085.4</ele>
        <time>2019-12-07T09:29:14Z</time>
      </trkpt>
      <trkpt lat="45.00677" lon="3.74338">
        <ele>1085.6</ele>
        <time>2019-12-07T09:29:15Z</time>
      </trkpt>
      <trkpt lat="45.00673" lon="3.74339">
        <ele>1085.8</ele>
        <time>2019-12-07T09:29:16Z</time>
      </trkpt>
      <trkpt lat="45.00668" lon="3.7434">
        <ele>1085.9</ele>
        <time>2019-12-07T09:29:17Z</time>
      </trkpt>
      <trkpt lat="45.0066" lon="3.74341">
        <ele>1086.5</ele>
        <time>2019-12-07T09:29:19Z</time>
      </trkpt>
      <trkpt lat="45.00655" lon="3.74343">
        <ele>1086.8</ele>
        <time>2019-12-07T09:29:20Z</time>
      </trkpt>
      <trkpt lat="45.0065" lon="3.74346">
        <ele>1087.2</ele>
        <time>2019-12-07T09:29:21Z</time>
      </trkpt>
      <trkpt lat="45.00646" lon="3.74349">
        <ele>1087.6</ele>
        <time>2019-12-07T09:29:22Z</time>
      </trkpt>
      <trkpt lat="45.00642" lon="3.74354">
        <ele>1087.9</ele>
        <time>2019-12-07T09:29:23Z</time>
      </trkpt>
      <trkpt lat="45.00638" lon="3.74359">
        <ele>1088.2</ele>
        <time>2019-12-07T09:29:24Z</time>
      </trkpt>
      <trkpt lat="45.00635" lon="3.74364">
        <ele>1088.5</ele>
        <time>2019-12-07T09:29:25Z</time>
      </trkpt>
      <trkpt lat="45.00632" lon="3.7437">
        <ele>1088.7</ele>
        <time>2019-12-07T09:29:26Z</time>
      </trkpt>
      <trkpt lat="45.00618" lon="3.74394">
        <ele>1089.7</ele>
        <time>2019-12-07T09:29:30Z</time>
      </trkpt>
      <trkpt lat="45.00607" lon="3.74414">
        <ele>1090.1</ele>
        <time>2019-12-07T09:29:34Z</time>
      </trkpt>
      <trkpt lat="45.00592" lon="3.7444">
        <ele>1090.2</ele>
        <time>2019-12-07T09:29:40Z</time>
      </trkpt>
      <trkpt lat="45.00584" lon="3.74489">
        <ele>1089.5</ele>
        <time>2019-12-07T09:29:49Z</time>
      </trkpt>
      <trkpt lat="45.00576" lon="3.74537">
        <ele>1088.3</ele>
        <time>2019-12-07T09:29:56Z</time>
      </trkpt>
      <trkpt lat="45.0056" lon="3.74601">
        <ele>1085.9</ele>
        <time>2019-12-07T09:30:04Z</time>
      </trkpt>
      <trkpt lat="45.0056" lon="3.74611">
        <ele>1085.5</ele>
        <time>2019-12-07T09:30:05Z</time>
      </trkpt>
      <trkpt lat="45.00564" lon="3.74702">
        <ele>1081.4</ele>
        <time>2019-12-07T09:30:14Z</time>
      </trkpt>
      <trkpt lat="45.00562" lon="3.74762">
        <ele>1079.4</ele>
        <time>2019-12-07T09:30:19Z</time>
      </trkpt>
      <trkpt lat="45.00562" lon="3.74796">
        <ele>1078.4</ele>
        <time>2019-12-07T09:30:22Z</time>
      </trkpt>
      <trkpt lat="45.00561" lon="3.74829">
        <ele>1077.7</ele>
        <time>2019-12-07T09:30:25Z</time>
      </trkpt>
      <trkpt lat="45.00559" lon="3.74863">
        <ele>1076.9</ele>
        <time>2019-12-07T09:30:28Z</time>
      </trkpt>
      <trkpt lat="45.00556" lon="3.74894">
        <ele>1076.1</ele>
        <time>2019-12-07T09:30:31Z</time>
      </trkpt>
      <trkpt lat="45.00552" lon="3.74925">
        <ele>1075.2</ele>
        <time>2019-12-07T09:30:34Z</time>
      </trkpt>
      <trkpt lat="45.00549" lon="3.74946">
        <ele>1074.4</ele>
        <time>2019-12-07T09:30:36Z</time>
      </trkpt>
      <trkpt lat="45.00548" lon="3.74956">
        <ele>1073.9</ele>
        <time>2019-12-07T09:30:37Z</time>
      </trkpt>
      <trkpt lat="45.00542" lon="3.7504">
        <ele>1070.9</ele>
        <time>2019-12-07T09:30:44Z</time>
      </trkpt>
      <trkpt lat="45.00535" lon="3.75064">
        <ele>1069.9</ele>
        <time>2019-12-07T09:30:46Z</time>
      </trkpt>
      <trkpt lat="45.0053" lon="3.75076">
        <ele>1069.2</ele>
        <time>2019-12-07T09:30:47Z</time>
      </trkpt>
      <trkpt lat="45.00521" lon="3.751">
        <ele>1067.8</ele>
        <time>2019-12-07T09:30:49Z</time>
      </trkpt>
      <trkpt lat="45.00513" lon="3.75126">
        <ele>1066.5</ele>
        <time>2019-12-07T09:30:51Z</time>
      </trkpt>
      <trkpt lat="45.00498" lon="3.75202">
        <ele>1062.7</ele>
        <time>2019-12-07T09:30:56Z</time>
      </trkpt>
      <trkpt lat="45.0049" lon="3.75283">
        <ele>1059.4</ele>
        <time>2019-12-07T09:31:01Z</time>
      </trkpt>
      <trkpt lat="45.00487" lon="3.75367">
        <ele>1055.4</ele>
        <time>2019-12-07T09:31:06Z</time>
      </trkpt>
      <trkpt lat="45.00488" lon="3.75436">
        <ele>1052.1</ele>
        <time>2019-12-07T09:31:10Z</time>
      </trkpt>
      <trkpt lat="45.00496" lon="3.75504">
        <ele>1049.2</ele>
        <time>2019-12-07T09:31:14Z</time>
      </trkpt>
      <trkpt lat="45.00503" lon="3.75555">
        <ele>1046.3</ele>
        <time>2019-12-07T09:31:17Z</time>
      </trkpt>
      <trkpt lat="45.00508" lon="3.75604">
        <ele>1044.6</ele>
        <time>2019-12-07T09:31:20Z</time>
      </trkpt>
      <trkpt lat="45.00508" lon="3.75616">
        <ele>1044.3</ele>
        <time>2019-12-07T09:31:21Z</time>
      </trkpt>
      <trkpt lat="45.00506" lon="3.75625">
        <ele>1044.2</ele>
        <time>2019-12-07T09:31:22Z</time>
      </trkpt>
      <trkpt lat="45.00505" lon="3.75635">
        <ele>1044</ele>
        <time>2019-12-07T09:31:23Z</time>
      </trkpt>
      <trkpt lat="45.00502" lon="3.75644">
        <ele>1043.9</ele>
        <time>2019-12-07T09:31:24Z</time>
      </trkpt>
      <trkpt lat="45.00499" lon="3.75653">
        <ele>1043.8</ele>
        <time>2019-12-07T09:31:25Z</time>
      </trkpt>
      <trkpt lat="45.00463" lon="3.75719">
        <ele>1042.8</ele>
        <time>2019-12-07T09:31:37Z</time>
      </trkpt>
      <trkpt lat="45.00432" lon="3.75769">
        <ele>1042</ele>
        <time>2019-12-07T09:31:45Z</time>
      </trkpt>
      <trkpt lat="45.00413" lon="3.75798">
        <ele>1041.3</ele>
        <time>2019-12-07T09:31:50Z</time>
      </trkpt>
      <trkpt lat="45.00409" lon="3.75804">
        <ele>1041.2</ele>
        <time>2019-12-07T09:31:51Z</time>
      </trkpt>
      <trkpt lat="45.00394" lon="3.75831">
        <ele>1040.6</ele>
        <time>2019-12-07T09:31:56Z</time>
      </trkpt>
      <trkpt lat="45.00392" lon="3.75838">
        <ele>1040.4</ele>
        <time>2019-12-07T09:31:57Z</time>
      </trkpt>
      <trkpt lat="45.00368" lon="3.75906">
        <ele>1038.5</ele>
        <time>2019-12-07T09:32:08Z</time>
      </trkpt>
      <trkpt lat="45.00366" lon="3.75911">
        <ele>1038.3</ele>
        <time>2019-12-07T09:32:09Z</time>
      </trkpt>
      <trkpt lat="45.00366" lon="3.75912">
        <ele>1038.2</ele>
        <time>2019-12-07T09:32:18Z</time>
      </trkpt>
      <trkpt lat="45.00366" lon="3.75919">
        <ele>1037.7</ele>
        <time>2019-12-07T09:32:32Z</time>
      </trkpt>
      <trkpt lat="45.00367" lon="3.75923">
        <ele>1037.6</ele>
        <time>2019-12-07T09:32:33Z</time>
      </trkpt>
      <trkpt lat="45.00368" lon="3.75928">
        <ele>1037.5</ele>
        <time>2019-12-07T09:32:34Z</time>
      </trkpt>
      <trkpt lat="45.0037" lon="3.75933">
        <ele>1037.4</ele>
        <time>2019-12-07T09:32:35Z</time>
      </trkpt>
      <trkpt lat="45.00373" lon="3.75937">
        <ele>1037.2</ele>
        <time>2019-12-07T09:32:36Z</time>
      </trkpt>
      <trkpt lat="45.00376" lon="3.75942">
        <ele>1037.1</ele>
        <time>2019-12-07T09:32:37Z</time>
      </trkpt>
      <trkpt lat="45.00384" lon="3.75952">
        <ele>1036.7</ele>
        <time>2019-12-07T09:32:39Z</time>
      </trkpt>
      <trkpt lat="45.00388" lon="3.75958">
        <ele>1036.5</ele>
        <time>2019-12-07T09:32:40Z</time>
      </trkpt>
      <trkpt lat="45.00426" lon="3.76028">
        <ele>1033.9</ele>
        <time>2019-12-07T09:32:49Z</time>
      </trkpt>
      <trkpt lat="45.0045" lon="3.76105">
        <ele>1030.4</ele>
        <time>2019-12-07T09:32:57Z</time>
      </trkpt>
      <trkpt lat="45.00464" lon="3.76169">
        <ele>1025.9</ele>
        <time>2019-12-07T09:33:03Z</time>
      </trkpt>
      <trkpt lat="45.00484" lon="3.76254">
        <ele>1027.7</ele>
        <time>2019-12-07T09:33:11Z</time>
      </trkpt>
      <trkpt lat="45.00504" lon="3.76342">
        <ele>1027.8</ele>
        <time>2019-12-07T09:33:19Z</time>
      </trkpt>
      <trkpt lat="45.00516" lon="3.76435">
        <ele>1025.8</ele>
        <time>2019-12-07T09:33:26Z</time>
      </trkpt>
      <trkpt lat="45.00525" lon="3.76525">
        <ele>1023.9</ele>
        <time>2019-12-07T09:33:32Z</time>
      </trkpt>
      <trkpt lat="45.00534" lon="3.7662">
        <ele>1020.1</ele>
        <time>2019-12-07T09:33:38Z</time>
      </trkpt>
      <trkpt lat="45.00548" lon="3.76695">
        <ele>1017.7</ele>
        <time>2019-12-07T09:33:43Z</time>
      </trkpt>
      <trkpt lat="45.00569" lon="3.76751">
        <ele>1018</ele>
        <time>2019-12-07T09:33:47Z</time>
      </trkpt>
      <trkpt lat="45.00586" lon="3.76792">
        <ele>1017</ele>
        <time>2019-12-07T09:33:50Z</time>
      </trkpt>
      <trkpt lat="45.00603" lon="3.76832">
        <ele>1013.9</ele>
        <time>2019-12-07T09:33:53Z</time>
      </trkpt>
      <trkpt lat="45.00624" lon="3.76884">
        <ele>1009</ele>
        <time>2019-12-07T09:33:57Z</time>
      </trkpt>
      <trkpt lat="45.00655" lon="3.76962">
        <ele>1006</ele>
        <time>2019-12-07T09:34:03Z</time>
      </trkpt>
      <trkpt lat="45.00675" lon="3.77012">
        <ele>1005</ele>
        <time>2019-12-07T09:34:07Z</time>
      </trkpt>
      <trkpt lat="45.00681" lon="3.77022">
        <ele>1004.5</ele>
        <time>2019-12-07T09:34:08Z</time>
      </trkpt>
      <trkpt lat="45.00689" lon="3.7703">
        <ele>1004.1</ele>
        <time>2019-12-07T09:34:09Z</time>
      </trkpt>
      <trkpt lat="45.00698" lon="3.77035">
        <ele>1003.8</ele>
        <time>2019-12-07T09:34:10Z</time>
      </trkpt>
      <trkpt lat="45.00707" lon="3.7704">
        <ele>1003.5</ele>
        <time>2019-12-07T09:34:11Z</time>
      </trkpt>
      <trkpt lat="45.00715" lon="3.77046">
        <ele>1003.3</ele>
        <time>2019-12-07T09:34:12Z</time>
      </trkpt>
      <trkpt lat="45.00732" lon="3.77055">
        <ele>1002.9</ele>
        <time>2019-12-07T09:34:14Z</time>
      </trkpt>
      <trkpt lat="45.00741" lon="3.77058">
        <ele>1002.8</ele>
        <time>2019-12-07T09:34:15Z</time>
      </trkpt>
      <trkpt lat="45.0075" lon="3.7706">
        <ele>1002.6</ele>
        <time>2019-12-07T09:34:16Z</time>
      </trkpt>
      <trkpt lat="45.00784" lon="3.77063">
        <ele>1001.1</ele>
        <time>2019-12-07T09:34:20Z</time>
      </trkpt>
      <trkpt lat="45.00792" lon="3.77066">
        <ele>1000.8</ele>
        <time>2019-12-07T09:34:21Z</time>
      </trkpt>
      <trkpt lat="45.00799" lon="3.77072">
        <ele>1000.8</ele>
        <time>2019-12-07T09:34:22Z</time>
      </trkpt>
      <trkpt lat="45.00805" lon="3.7708">
        <ele>1000.8</ele>
        <time>2019-12-07T09:34:23Z</time>
      </trkpt>
      <trkpt lat="45.0081" lon="3.77089">
        <ele>1000.7</ele>
        <time>2019-12-07T09:34:24Z</time>
      </trkpt>
      <trkpt lat="45.00813" lon="3.77099">
        <ele>1000.6</ele>
        <time>2019-12-07T09:34:25Z</time>
      </trkpt>
      <trkpt lat="45.00817" lon="3.7711">
        <ele>1000.5</ele>
        <time>2019-12-07T09:34:26Z</time>
      </trkpt>
      <trkpt lat="45.00845" lon="3.77183">
        <ele>998.7</ele>
        <time>2019-12-07T09:34:33Z</time>
      </trkpt>
      <trkpt lat="45.00883" lon="3.77259">
        <ele>996.3</ele>
        <time>2019-12-07T09:34:40Z</time>
      </trkpt>
      <trkpt lat="45.00899" lon="3.77305">
        <ele>993.1</ele>
        <time>2019-12-07T09:34:44Z</time>
      </trkpt>
      <trkpt lat="45.00909" lon="3.77328">
        <ele>991.4</ele>
        <time>2019-12-07T09:34:47Z</time>
      </trkpt>
      <trkpt lat="45.00913" lon="3.77335">
        <ele>991.1</ele>
        <time>2019-12-07T09:34:48Z</time>
      </trkpt>
      <trkpt lat="45.00919" lon="3.77342">
        <ele>990.6</ele>
        <time>2019-12-07T09:34:49Z</time>
      </trkpt>
      <trkpt lat="45.0095" lon="3.77369">
        <ele>987.3</ele>
        <time>2019-12-07T09:34:53Z</time>
      </trkpt>
      <trkpt lat="45.0096" lon="3.77374">
        <ele>986.4</ele>
        <time>2019-12-07T09:34:54Z</time>
      </trkpt>
      <trkpt lat="45.00998" lon="3.77388">
        <ele>983.9</ele>
        <time>2019-12-07T09:34:58Z</time>
      </trkpt>
      <trkpt lat="45.01018" lon="3.77396">
        <ele>982.8</ele>
        <time>2019-12-07T09:35:01Z</time>
      </trkpt>
      <trkpt lat="45.01032" lon="3.77407">
        <ele>981.6</ele>
        <time>2019-12-07T09:35:05Z</time>
      </trkpt>
      <trkpt lat="45.01034" lon="3.77417">
        <ele>981.3</ele>
        <time>2019-12-07T09:35:07Z</time>
      </trkpt>
      <trkpt lat="45.01034" lon="3.77423">
        <ele>981</ele>
        <time>2019-12-07T09:35:08Z</time>
      </trkpt>
      <trkpt lat="45.01033" lon="3.77429">
        <ele>980.8</ele>
        <time>2019-12-07T09:35:09Z</time>
      </trkpt>
      <trkpt lat="45.01032" lon="3.77436">
        <ele>980.5</ele>
        <time>2019-12-07T09:35:10Z</time>
      </trkpt>
      <trkpt lat="45.0103" lon="3.77443">
        <ele>980.2</ele>
        <time>2019-12-07T09:35:11Z</time>
      </trkpt>
      <trkpt lat="45.01021" lon="3.77492">
        <ele>979.2</ele>
        <time>2019-12-07T09:35:17Z</time>
      </trkpt>
      <trkpt lat="45.01015" lon="3.77507">
        <ele>979</ele>
        <time>2019-12-07T09:35:19Z</time>
      </trkpt>
      <trkpt lat="45.01013" lon="3.77516">
        <ele>978.8</ele>
        <time>2019-12-07T09:35:20Z</time>
      </trkpt>
      <trkpt lat="45.0101" lon="3.77525">
        <ele>978.6</ele>
        <time>2019-12-07T09:35:21Z</time>
      </trkpt>
      <trkpt lat="45.01006" lon="3.77532">
        <ele>978.4</ele>
        <time>2019-12-07T09:35:22Z</time>
      </trkpt>
      <trkpt lat="45.01" lon="3.77537">
        <ele>978.5</ele>
        <time>2019-12-07T09:35:23Z</time>
      </trkpt>
      <trkpt lat="45.00995" lon="3.77543">
        <ele>978.6</ele>
        <time>2019-12-07T09:35:24Z</time>
      </trkpt>
      <trkpt lat="45.0099" lon="3.7755">
        <ele>978.6</ele>
        <time>2019-12-07T09:35:25Z</time>
      </trkpt>
      <trkpt lat="45.00985" lon="3.77558">
        <ele>978.6</ele>
        <time>2019-12-07T09:35:26Z</time>
      </trkpt>
      <trkpt lat="45.00981" lon="3.77566">
        <ele>978.7</ele>
        <time>2019-12-07T09:35:27Z</time>
      </trkpt>
      <trkpt lat="45.00977" lon="3.77573">
        <ele>978.7</ele>
        <time>2019-12-07T09:35:28Z</time>
      </trkpt>
      <trkpt lat="45.00971" lon="3.77578">
        <ele>978.6</ele>
        <time>2019-12-07T09:35:29Z</time>
      </trkpt>
      <trkpt lat="45.00967" lon="3.77581">
        <ele>978.6</ele>
        <time>2019-12-07T09:35:30Z</time>
      </trkpt>
      <trkpt lat="45.00965" lon="3.77584">
        <ele>978.6</ele>
        <time>2019-12-07T09:35:31Z</time>
      </trkpt>
      <trkpt lat="45.00963" lon="3.77587">
        <ele>978.6</ele>
        <time>2019-12-07T09:35:32Z</time>
      </trkpt>
    </trkseg>
  </trk>
</gpx>